Observation data for Welch on 09/12/2017      Previous  Date  Next       Current Mesonet Observations  Soil Data  Daily Summary Page  Observations in Plain Language
KWE2 120500Z 10002KT 18/11 A3014 RMK A01 T01840105  RH  060%=      5-min Rain = 0
KWE2 120501Z 11002KT 19/10 A3014 RMK A01 T01850104  RH  059%=      5-min Rain = 0
KWE2 120502Z 11002KT 19/11 A3014 RMK A01 T01870105  RH  059%=      5-min Rain = 0
KWE2 120503Z 11002KT 19/11 A3014 RMK A01 T01880105  RH  058%=      5-min Rain = 0
KWE2 120504Z 11002KT 19/10 A3014 RMK A01 T01890104  RH  058%=      5-min Rain = 0
KWE2 120505Z 11002KT 19/10 A3014 RMK A01 T01900103  RH  057%=      5-min Rain = 0
KWE2 120506Z 11003KT 19/10 A3014 RMK A01 T01900104  RH  057%=      5-min Rain = 0
KWE2 120507Z 11003KT 19/10 A3014 RMK A01 T01920104  RH  057%=      5-min Rain = 0
KWE2 120508Z 11003KT 19/11 A3013 RMK A01 T01930105  RH  057%=      5-min Rain = 0
KWE2 120509Z 11002KT 19/11 A3013 RMK A01 T01940107  RH  057%=      5-min Rain = 0
KWE2 120510Z 11002KT 19/11 A3013 RMK A01 T01940111  RH  059%=      5-min Rain = 0
KWE2 120511Z 12002KT 19/11 A3013 RMK A01 T01940113  RH  060%=      5-min Rain = 0
KWE2 120512Z 12002KT 19/11 A3013 RMK A01 T01930114  RH  060%=      5-min Rain = 0
KWE2 120513Z 12002KT 19/12 A3013 RMK A01 T01920117  RH  062%=      5-min Rain = 0
KWE2 120514Z 12002KT 19/12 A3013 RMK A01 T01900117  RH  062%=      5-min Rain = 0
KWE2 120515Z 13002KT 19/12 A3013 RMK A01 T01880117  RH  063%=      5-min Rain = 0
KWE2 120516Z 13001KT 19/12 A3013 RMK A01 T01860115  RH  063%=      5-min Rain = 0
KWE2 120517Z 13000KT 18/11 A3013 RMK A01 T01830108  RH  062%=      5-min Rain = 0
KWE2 120518Z 00000KT 18/10 A3013 RMK A01 T01780103  RH  062%=      5-min Rain = 0
KWE2 120519Z 31000KT 18/10 A3013 RMK A01 T01750102  RH  062%=      5-min Rain = 0
KWE2 120520Z 29001KT 17/10 A3013 RMK A01 T01730102  RH  063%=      5-min Rain = 0
KWE2 120521Z 29001KT 17/10 A3013 RMK A01 T01720101  RH  063%=      5-min Rain = 0
KWE2 120522Z 30001KT 17/10 A3013 RMK A01 T01720100  RH  063%=      5-min Rain = 0
KWE2 120523Z 30000KT 17/10 A3013 RMK A01 T01710099  RH  062%=      5-min Rain = 0
KWE2 120524Z 30000KT 17/10 A3013 RMK A01 T01710098  RH  062%=      5-min Rain = 0
KWE2 120525Z 30001KT 17/10 A3013 RMK A01 T01700098  RH  062%=      5-min Rain = 0
KWE2 120526Z 30001KT 17/10 A3013 RMK A01 T01700097  RH  062%=      5-min Rain = 0
KWE2 120527Z 30001KT 17/10 A3013 RMK A01 T01700097  RH  062%=      5-min Rain = 0
KWE2 120528Z 30001KT 17/10 A3013 RMK A01 T01690096  RH  062%=      5-min Rain = 0
KWE2 120529Z 30000KT 17/10 A3013 RMK A01 T01690096  RH  062%=      5-min Rain = 0
KWE2 120530Z 00000KT 17/10 A3013 RMK A01 T01690097  RH  062%=      5-min Rain = 0
KWE2 120531Z 00000KT 17/10 A3013 RMK A01 T01700096  RH  062%=      5-min Rain = 0
KWE2 120532Z 00000KT 17/10 A3013 RMK A01 T01690096  RH  062%=      5-min Rain = 0
KWE2 120533Z 00000KT 17/10 A3013 RMK A01 T01690096  RH  062%=      5-min Rain = 0
KWE2 120534Z 08000KT 17/10 A3013 RMK A01 T01690098  RH  063%=      5-min Rain = 0
KWE2 120535Z 10001KT 17/10 A3013 RMK A01 T01700102  RH  064%=      5-min Rain = 0
KWE2 120536Z 11001KT 17/11 A3013 RMK A01 T01720105  RH  065%=      5-min Rain = 0
KWE2 120537Z 11002KT 17/11 A3013 RMK A01 T01730106  RH  065%=      5-min Rain = 0
KWE2 120538Z 11002KT 17/11 A3013 RMK A01 T01740108  RH  065%=      5-min Rain = 0
KWE2 120539Z 11002KT 18/11 A3013 RMK A01 T01750107  RH  065%=      5-min Rain = 0
KWE2 120540Z 11002KT 18/11 A3013 RMK A01 T01750107  RH  064%=      5-min Rain = 0
KWE2 120541Z 11002KT 18/11 A3013 RMK A01 T01760107  RH  064%=      5-min Rain = 0
KWE2 120542Z 11002KT 18/11 A3013 RMK A01 T01770107  RH  063%=      5-min Rain = 0
KWE2 120543Z 11002KT 18/11 A3013 RMK A01 T01770106  RH  063%=      5-min Rain = 0
KWE2 120544Z 11002KT 18/11 A3013 RMK A01 T01780106  RH  063%=      5-min Rain = 0
KWE2 120545Z 10002KT 18/11 A3013 RMK A01 T01780106  RH  063%=      5-min Rain = 0
KWE2 120546Z 10002KT 18/11 A3013 RMK A01 T01770105  RH  063%=      5-min Rain = 0
KWE2 120547Z 10002KT 18/11 A3013 RMK A01 T01780106  RH  063%=      5-min Rain = 0
KWE2 120548Z 10002KT 18/11 A3013 RMK A01 T01780105  RH  062%=      5-min Rain = 0
KWE2 120549Z 10002KT 18/10 A3013 RMK A01 T01780104  RH  062%=      5-min Rain = 0
KWE2 120550Z 10002KT 18/10 A3013 RMK A01 T01780101  RH  061%=      5-min Rain = 0
KWE2 120551Z 10002KT 18/10 A3013 RMK A01 T01760098  RH  060%=      5-min Rain = 0
KWE2 120552Z 10002KT 18/10 A3013 RMK A01 T01750097  RH  060%=      5-min Rain = 0
KWE2 120553Z 09002KT 17/10 A3013 RMK A01 T01730099  RH  062%=      5-min Rain = 0
KWE2 120554Z 09002KT 17/10 A3013 RMK A01 T01700099  RH  063%=      5-min Rain = 0
KWE2 120555Z 09002KT 17/10 A3013 RMK A01 T01670099  RH  064%=      5-min Rain = 0
KWE2 120556Z 09002KT 17/10 A3013 RMK A01 T01660102  RH  066%=      5-min Rain = 0
KWE2 120557Z 09002KT 17/11 A3013 RMK A01 T01650107  RH  068%=      5-min Rain = 0
KWE2 120558Z 08002KT 17/11 A3013 RMK A01 T01670108  RH  068%=      5-min Rain = 0
KWE2 120559Z 08002KT 17/10 A3013 RMK A01 T01690104  RH  066%=      5-min Rain = 0
KWE2 120600Z 08002KT 17/10 A3013 RMK A01 T01670100  RH  065%=      5-min Rain = 0
KWE2 120601Z 07002KT 17/10 A3013 RMK A01 T01650099  RH  065%=      5-min Rain = 0
KWE2 120602Z 07002KT 16/10 A3013 RMK A01 T01640098  RH  065%=      5-min Rain = 0
KWE2 120603Z 07001KT 16/10 A3013 RMK A01 T01630098  RH  065%=      5-min Rain = 0
KWE2 120604Z 08002KT 16/10 A3013 RMK A01 T01620097  RH  065%=      5-min Rain = 0
KWE2 120605Z 09002KT 16/10 A3013 RMK A01 T01620097  RH  065%=      5-min Rain = 0
KWE2 120606Z 08002KT 16/10 A3013 RMK A01 T01620097  RH  065%=      5-min Rain = 0
KWE2 120607Z 08002KT 16/10 A3013 RMK A01 T01610097  RH  066%=      5-min Rain = 0
KWE2 120608Z 08003KT 16/10 A3012 RMK A01 T01610097  RH  066%=      5-min Rain = 0
KWE2 120609Z 08003KT 16/10 A3012 RMK A01 T01610097  RH  065%=      5-min Rain = 0
KWE2 120610Z 08003KT 16/10 A3012 RMK A01 T01620098  RH  066%=      5-min Rain = 0
KWE2 120611Z 08002KT 16/10 A3012 RMK A01 T01620098  RH  066%=      5-min Rain = 0
KWE2 120612Z 08002KT 16/10 A3012 RMK A01 T01620098  RH  066%=      5-min Rain = 0
KWE2 120613Z 08002KT 16/10 A3012 RMK A01 T01620098  RH  066%=      5-min Rain = 0
KWE2 120614Z 08002KT 16/10 A3012 RMK A01 T01630099  RH  066%=      5-min Rain = 0
KWE2 120615Z 07002KT 16/10 A3012 RMK A01 T01640101  RH  066%=      5-min Rain = 0
KWE2 120616Z 08002KT 17/10 A3012 RMK A01 T01670103  RH  066%=      5-min Rain = 0
KWE2 120617Z 08001KT 17/10 A3012 RMK A01 T01690102  RH  064%=      5-min Rain = 0
KWE2 120618Z 07002KT 17/10 A3012 RMK A01 T01690102  RH  064%=      5-min Rain = 0
KWE2 120619Z 08002KT 17/10 A3012 RMK A01 T01700101  RH  064%=      5-min Rain = 0
KWE2 120620Z 08002KT 17/10 A3012 RMK A01 T01700099  RH  063%=      5-min Rain = 0
KWE2 120621Z 08002KT 17/10 A3012 RMK A01 T01690099  RH  063%=      5-min Rain = 0
KWE2 120622Z 08002KT 17/10 A3012 RMK A01 T01680098  RH  063%=      5-min Rain = 0
KWE2 120623Z 08002KT 17/10 A3012 RMK A01 T01670097  RH  063%=      5-min Rain = 0
KWE2 120624Z 07002KT 17/10 A3012 RMK A01 T01660097  RH  064%=      5-min Rain = 0
KWE2 120625Z 07003KT 17/10 A3012 RMK A01 T01650096  RH  064%=      5-min Rain = 0
KWE2 120626Z 07003KT 16/10 A3012 RMK A01 T01630096  RH  064%=      5-min Rain = 0
KWE2 120627Z 07003KT 16/10 A3012 RMK A01 T01640102  RH  067%=      5-min Rain = 0
KWE2 120628Z 07004KT 17/10 A3012 RMK A01 T01660103  RH  066%=      5-min Rain = 0
KWE2 120629Z 07004KT 17/10 A3012 RMK A01 T01680102  RH  065%=      5-min Rain = 0
KWE2 120630Z 07005KT 17/10 A3012 RMK A01 T01690103  RH  065%=      5-min Rain = 0
KWE2 120631Z 07004KT 17/11 A3012 RMK A01 T01730106  RH  065%=      5-min Rain = 0
KWE2 120632Z 07004KT 18/11 A3012 RMK A01 T01780108  RH  064%=      5-min Rain = 0
KWE2 120633Z 08004KT 18/11 A3012 RMK A01 T01820109  RH  062%=      5-min Rain = 0
KWE2 120634Z 08003KT 19/11 A3012 RMK A01 T01850108  RH  061%=      5-min Rain = 0
KWE2 120635Z 08004KT 19/11 A3012 RMK A01 T01870107  RH  060%=      5-min Rain = 0
KWE2 120636Z 08004KT 19/11 A3012 RMK A01 T01880106  RH  059%=      5-min Rain = 0
KWE2 120637Z 09003KT 19/11 A3012 RMK A01 T01890105  RH  058%=      5-min Rain = 0
KWE2 120638Z 10003KT 19/11 A3012 RMK A01 T01900105  RH  058%=      5-min Rain = 0
KWE2 120639Z 10004KT 19/11 A3012 RMK A01 T01890108  RH  059%=      5-min Rain = 0
KWE2 120640Z 10004KT 19/11 A3012 RMK A01 T01880108  RH  060%=      5-min Rain = 0
KWE2 120641Z 10004KT 19/11 A3012 RMK A01 T01870107  RH  060%=      5-min Rain = 0
KWE2 120642Z 11004KT 19/11 A3012 RMK A01 T01870107  RH  060%=      5-min Rain = 0
KWE2 120643Z 10005KT 19/11 A3012 RMK A01 T01850108  RH  061%=      5-min Rain = 0
KWE2 120644Z 10005KT 18/11 A3012 RMK A01 T01840110  RH  062%=      5-min Rain = 0
KWE2 120645Z 10005KT 18/11 A3012 RMK A01 T01810109  RH  063%=      5-min Rain = 0
KWE2 120646Z 10005KT 18/11 A3012 RMK A01 T01800108  RH  063%=      5-min Rain = 0
KWE2 120647Z 10005KT 18/11 A3012 RMK A01 T01790107  RH  063%=      5-min Rain = 0
KWE2 120648Z 10005KT 18/11 A3012 RMK A01 T01780106  RH  063%=      5-min Rain = 0
KWE2 120649Z 10005KT 18/11 A3012 RMK A01 T01780105  RH  062%=      5-min Rain = 0
KWE2 120650Z 10005KT 18/11 A3012 RMK A01 T01790105  RH  062%=      5-min Rain = 0
KWE2 120651Z 10005KT 18/11 A3012 RMK A01 T01790105  RH  062%=      5-min Rain = 0
KWE2 120652Z 10005KT 18/11 A3012 RMK A01 T01790107  RH  063%=      5-min Rain = 0
KWE2 120653Z 10005KT 18/11 A3012 RMK A01 T01780107  RH  063%=      5-min Rain = 0
KWE2 120654Z 11005KT 18/11 A3012 RMK A01 T01770107  RH  064%=      5-min Rain = 0
KWE2 120655Z 11005KT 18/11 A3012 RMK A01 T01760107  RH  064%=      5-min Rain = 0
KWE2 120656Z 11005KT 18/11 A3012 RMK A01 T01750107  RH  064%=      5-min Rain = 0
KWE2 120657Z 11005KT 17/11 A3012 RMK A01 T01740107  RH  065%=      5-min Rain = 0
KWE2 120658Z 11004KT 17/11 A3012 RMK A01 T01740107  RH  065%=      5-min Rain = 0
KWE2 120659Z 11004KT 17/11 A3012 RMK A01 T01730107  RH  065%=      5-min Rain = 0
KWE2 120700Z 11004KT 17/11 A3012 RMK A01 T01730108  RH  066%=      5-min Rain = 0
KWE2 120701Z 11004KT 17/11 A3012 RMK A01 T01720108  RH  066%=      5-min Rain = 0
KWE2 120702Z 11004KT 17/11 A3012 RMK A01 T01720106  RH  065%=      5-min Rain = 0
KWE2 120703Z 11004KT 17/11 A3012 RMK A01 T01730107  RH  065%=      5-min Rain = 0
KWE2 120704Z 11004KT 17/11 A3012 RMK A01 T01730107  RH  065%=      5-min Rain = 0
KWE2 120705Z 11005KT 17/11 A3012 RMK A01 T01730107  RH  065%=      5-min Rain = 0
KWE2 120706Z 11005KT 17/11 A3012 RMK A01 T01730107  RH  065%=      5-min Rain = 0
KWE2 120707Z 11005KT 17/11 A3012 RMK A01 T01730106  RH  065%=      5-min Rain = 0
KWE2 120708Z 11005KT 17/11 A3012 RMK A01 T01730106  RH  065%=      5-min Rain = 0
KWE2 120709Z 11005KT 17/11 A3012 RMK A01 T01720106  RH  065%=      5-min Rain = 0
KWE2 120710Z 11005KT 17/11 A3012 RMK A01 T01710106  RH  066%=      5-min Rain = 0
KWE2 120711Z 11005KT 17/11 A3012 RMK A01 T01700107  RH  066%=      5-min Rain = 0
KWE2 120712Z 11004KT 17/11 A3012 RMK A01 T01680107  RH  067%=      5-min Rain = 0
KWE2 120713Z 11004KT 17/11 A3012 RMK A01 T01670108  RH  068%=      5-min Rain = 0
KWE2 120714Z 11004KT 17/11 A3012 RMK A01 T01660108  RH  068%=      5-min Rain = 0
KWE2 120715Z 11004KT 17/11 A3012 RMK A01 T01660108  RH  069%=      5-min Rain = 0
KWE2 120716Z 11004KT 17/11 A3012 RMK A01 T01650107  RH  069%=      5-min Rain = 0
KWE2 120717Z 11004KT 17/11 A3012 RMK A01 T01650106  RH  068%=      5-min Rain = 0
KWE2 120718Z 11004KT 17/11 A3012 RMK A01 T01660106  RH  068%=      5-min Rain = 0
KWE2 120719Z 12004KT 17/11 A3012 RMK A01 T01660106  RH  068%=      5-min Rain = 0
KWE2 120720Z 12004KT 17/11 A3012 RMK A01 T01660107  RH  068%=      5-min Rain = 0
KWE2 120721Z 13004KT 17/11 A3011 RMK A01 T01670107  RH  068%=      5-min Rain = 0
KWE2 120722Z 13004KT 17/11 A3011 RMK A01 T01670107  RH  067%=      5-min Rain = 0
KWE2 120723Z 12004KT 17/11 A3011 RMK A01 T01680106  RH  067%=      5-min Rain = 0
KWE2 120724Z 12004KT 17/11 A3011 RMK A01 T01690108  RH  067%=      5-min Rain = 0
KWE2 120725Z 12004KT 17/11 A3011 RMK A01 T01690109  RH  068%=      5-min Rain = 0
KWE2 120726Z 12004KT 17/11 A3011 RMK A01 T01690109  RH  068%=      5-min Rain = 0
KWE2 120727Z 13004KT 17/11 A3011 RMK A01 T01680108  RH  068%=      5-min Rain = 0
KWE2 120728Z 13004KT 17/11 A3011 RMK A01 T01670108  RH  068%=      5-min Rain = 0
KWE2 120729Z 12004KT 17/11 A3011 RMK A01 T01670108  RH  068%=      5-min Rain = 0
KWE2 120730Z 12004KT 17/11 A3011 RMK A01 T01670108  RH  068%=      5-min Rain = 0
KWE2 120731Z 12004KT 17/11 A3011 RMK A01 T01670108  RH  068%=      5-min Rain = 0
KWE2 120732Z 13004KT 17/11 A3011 RMK A01 T01670108  RH  068%=      5-min Rain = 0
KWE2 120733Z 13004KT 17/11 A3011 RMK A01 T01670109  RH  069%=      5-min Rain = 0
KWE2 120734Z 13004KT 17/11 A3011 RMK A01 T01660109  RH  069%=      5-min Rain = 0
KWE2 120735Z 12004KT 17/11 A3011 RMK A01 T01660108  RH  069%=      5-min Rain = 0
KWE2 120736Z 13004KT 17/11 A3011 RMK A01 T01660110  RH  069%=      5-min Rain = 0
KWE2 120737Z 13004KT 17/11 A3011 RMK A01 T01650110  RH  070%=      5-min Rain = 0
KWE2 120738Z 12004KT 17/11 A3011 RMK A01 T01650108  RH  069%=      5-min Rain = 0
KWE2 120739Z 13004KT 17/11 A3011 RMK A01 T01650108  RH  069%=      5-min Rain = 0
KWE2 120740Z 13004KT 17/11 A3011 RMK A01 T01650108  RH  069%=      5-min Rain = 0
KWE2 120741Z 13003KT 17/11 A3011 RMK A01 T01650106  RH  068%=      5-min Rain = 0
KWE2 120742Z 12003KT 17/11 A3011 RMK A01 T01650107  RH  068%=      5-min Rain = 0
KWE2 120743Z 13003KT 17/11 A3011 RMK A01 T01650108  RH  069%=      5-min Rain = 0
KWE2 120744Z 13003KT 17/11 A3011 RMK A01 T01650108  RH  069%=      5-min Rain = 0
KWE2 120745Z 13003KT 17/11 A3011 RMK A01 T01660109  RH  069%=      5-min Rain = 0
KWE2 120746Z 13003KT 17/11 A3011 RMK A01 T01650110  RH  070%=      5-min Rain = 0
KWE2 120747Z 13002KT 16/11 A3011 RMK A01 T01640111  RH  071%=      5-min Rain = 0
KWE2 120748Z 13003KT 16/11 A3011 RMK A01 T01630110  RH  071%=      5-min Rain = 0
KWE2 120749Z 14003KT 16/11 A3011 RMK A01 T01620110  RH  072%=      5-min Rain = 0
KWE2 120750Z 14003KT 16/11 A3011 RMK A01 T01600110  RH  072%=      5-min Rain = 0
KWE2 120751Z 14003KT 16/11 A3011 RMK A01 T01600110  RH  073%=      5-min Rain = 0
KWE2 120752Z 14002KT 16/11 A3011 RMK A01 T01590110  RH  073%=      5-min Rain = 0
KWE2 120753Z 14002KT 16/11 A3011 RMK A01 T01580110  RH  073%=      5-min Rain = 0
KWE2 120754Z 14002KT 16/11 A3011 RMK A01 T01570108  RH  073%=      5-min Rain = 0
KWE2 120755Z 14001KT 16/11 A3011 RMK A01 T01560107  RH  073%=      5-min Rain = 0
KWE2 120756Z 14001KT 16/11 A3011 RMK A01 T01550105  RH  072%=      5-min Rain = 0
KWE2 120757Z 14001KT 15/10 A3011 RMK A01 T01540103  RH  071%=      5-min Rain = 0
KWE2 120758Z 14000KT 15/10 A3011 RMK A01 T01540103  RH  071%=      5-min Rain = 0
KWE2 120759Z 14001KT 16/10 A3011 RMK A01 T01550102  RH  071%=      5-min Rain = 0
KWE2 120800Z 14001KT 16/10 A3011 RMK A01 T01560102  RH  070%=      5-min Rain = 0
KWE2 120801Z 14002KT 16/10 A3011 RMK A01 T01570102  RH  069%=      5-min Rain = 0
KWE2 120802Z 14002KT 16/10 A3011 RMK A01 T01590101  RH  069%=      5-min Rain = 0
KWE2 120803Z 14002KT 16/10 A3011 RMK A01 T01590102  RH  069%=      5-min Rain = 0
KWE2 120804Z 14002KT 16/10 A3011 RMK A01 T01600103  RH  069%=      5-min Rain = 0
KWE2 120805Z 14001KT 16/10 A3011 RMK A01 T01610103  RH  069%=      5-min Rain = 0
KWE2 120806Z 14001KT 16/10 A3011 RMK A01 T01600103  RH  069%=      5-min Rain = 0
KWE2 120807Z 14001KT 16/11 A3011 RMK A01 T01610107  RH  070%=      5-min Rain = 0
KWE2 120808Z 14001KT 16/11 A3011 RMK A01 T01600109  RH  072%=      5-min Rain = 0
KWE2 120809Z 16001KT 16/11 A3011 RMK A01 T01580107  RH  072%=      5-min Rain = 0
KWE2 120810Z 17001KT 16/11 A3011 RMK A01 T01580106  RH  071%=      5-min Rain = 0
KWE2 120811Z 17002KT 16/11 A3011 RMK A01 T01570106  RH  071%=      5-min Rain = 0
KWE2 120812Z 17002KT 16/11 A3011 RMK A01 T01570106  RH  071%=      5-min Rain = 0
KWE2 120813Z 17002KT 16/11 A3011 RMK A01 T01570105  RH  071%=      5-min Rain = 0
KWE2 120814Z 17001KT 16/10 A3011 RMK A01 T01560103  RH  071%=      5-min Rain = 0
KWE2 120815Z 17001KT 16/10 A3011 RMK A01 T01550102  RH  070%=      5-min Rain = 0
KWE2 120816Z 17001KT 15/10 A3011 RMK A01 T01540101  RH  071%=      5-min Rain = 0
KWE2 120817Z 17001KT 15/10 A3011 RMK A01 T01540100  RH  070%=      5-min Rain = 0
KWE2 120818Z 17001KT 15/10 A3011 RMK A01 T01530099  RH  070%=      5-min Rain = 0
KWE2 120819Z 17000KT 15/10 A3011 RMK A01 T01520098  RH  070%=      5-min Rain = 0
KWE2 120820Z 17000KT 15/10 A3011 RMK A01 T01510098  RH  071%=      5-min Rain = 0
KWE2 120821Z 17001KT 15/10 A3011 RMK A01 T01500098  RH  071%=      5-min Rain = 0
KWE2 120822Z 17001KT 15/10 A3011 RMK A01 T01500098  RH  071%=      5-min Rain = 0
KWE2 120823Z 17001KT 15/10 A3011 RMK A01 T01500098  RH  071%=      5-min Rain = 0
KWE2 120824Z 16001KT 15/10 A3011 RMK A01 T01490097  RH  071%=      5-min Rain = 0
KWE2 120825Z 16002KT 15/10 A3011 RMK A01 T01490097  RH  071%=      5-min Rain = 0
KWE2 120826Z 16002KT 15/10 A3011 RMK A01 T01490097  RH  071%=      5-min Rain = 0
KWE2 120827Z 16001KT 15/10 A3011 RMK A01 T01490097  RH  071%=      5-min Rain = 0
KWE2 120828Z 16001KT 15/10 A3011 RMK A01 T01500097  RH  071%=      5-min Rain = 0
KWE2 120829Z 16001KT 15/10 A3011 RMK A01 T01500098  RH  071%=      5-min Rain = 0
KWE2 120830Z 16001KT 15/10 A3011 RMK A01 T01500099  RH  071%=      5-min Rain = 0
KWE2 120831Z 16001KT 15/10 A3011 RMK A01 T01500099  RH  071%=      5-min Rain = 0
KWE2 120832Z 16001KT 15/10 A3011 RMK A01 T01500098  RH  071%=      5-min Rain = 0
KWE2 120833Z 16001KT 15/10 A3011 RMK A01 T01510097  RH  070%=      5-min Rain = 0
KWE2 120834Z 16001KT 15/10 A3011 RMK A01 T01510098  RH  071%=      5-min Rain = 0
KWE2 120835Z 16001KT 15/10 A3011 RMK A01 T01500097  RH  071%=      5-min Rain = 0
KWE2 120836Z 16001KT 15/10 A3011 RMK A01 T01500097  RH  071%=      5-min Rain = 0
KWE2 120837Z 16001KT 15/10 A3011 RMK A01 T01500097  RH  070%=      5-min Rain = 0
KWE2 120838Z 16001KT 15/10 A3011 RMK A01 T01510097  RH  070%=      5-min Rain = 0
KWE2 120839Z 16001KT 15/10 A3011 RMK A01 T01510097  RH  070%=      5-min Rain = 0
KWE2 120840Z 16002KT 15/10 A3011 RMK A01 T01520097  RH  070%=      5-min Rain = 0
KWE2 120841Z 16002KT 15/10 A3011 RMK A01 T01520097  RH  070%=      5-min Rain = 0
KWE2 120842Z 16001KT 15/10 A301 RMK A01 T01520097  RH  070%=      5-min Rain = 0
KWE2 120843Z 16001KT 15/10 A301 RMK A01 T01520098  RH  070%=      5-min Rain = 0
KWE2 120844Z 16002KT 15/10 A301 RMK A01 T01520098  RH  070%=      5-min Rain = 0
KWE2 120845Z 17002KT 15/10 A301 RMK A01 T01520098  RH  070%=      5-min Rain = 0
KWE2 120846Z 17002KT 15/10 A301 RMK A01 T01520098  RH  070%=      5-min Rain = 0
KWE2 120847Z 17001KT 15/10 A301 RMK A01 T01520098  RH  070%=      5-min Rain = 0
KWE2 120848Z 17001KT 15/10 A301 RMK A01 T01530098  RH  070%=      5-min Rain = 0
KWE2 120849Z 17002KT 15/10 A301 RMK A01 T01530098  RH  070%=      5-min Rain = 0
KWE2 120850Z 17002KT 15/10 A301 RMK A01 T01540098  RH  069%=      5-min Rain = 0
KWE2 120851Z 17002KT 15/10 A301 RMK A01 T01540098  RH  069%=      5-min Rain = 0
KWE2 120852Z 17002KT 15/10 A301 RMK A01 T01540097  RH  068%=      5-min Rain = 0
KWE2 120853Z 18001KT 16/10 A301 RMK A01 T01550097  RH  069%=      5-min Rain = 0
KWE2 120854Z 18001KT 15/10 A301 RMK A01 T01540100  RH  070%=      5-min Rain = 0
KWE2 120855Z 18001KT 16/10 A301 RMK A01 T01550099  RH  070%=      5-min Rain = 0
KWE2 120856Z 18001KT 15/10 A301 RMK A01 T01540098  RH  069%=      5-min Rain = 0
KWE2 120857Z 18001KT 15/10 A301 RMK A01 T01540097  RH  069%=      5-min Rain = 0
KWE2 120858Z 18001KT 15/10 A301 RMK A01 T01540098  RH  069%=      5-min Rain = 0
KWE2 120859Z 00000KT 15/10 A301 RMK A01 T01530097  RH  069%=      5-min Rain = 0
KWE2 120900Z 00000KT 15/09 A301 RMK A01 T01520094  RH  068%=      5-min Rain = 0
KWE2 120901Z 00000KT 15/09 A301 RMK A01 T01520092  RH  067%=      5-min Rain = 0
KWE2 120902Z 00000KT 15/10 A301 RMK A01 T01520098  RH  070%=      5-min Rain = 0
KWE2 120903Z 20000KT 15/10 A301 RMK A01 T01520098  RH  070%=      5-min Rain = 0
KWE2 120904Z 22001KT 15/10 A301 RMK A01 T01510097  RH  070%=      5-min Rain = 0
KWE2 120905Z 22002KT 15/10 A301 RMK A01 T01500096  RH  070%=      5-min Rain = 0
KWE2 120906Z 21002KT 15/10 A301 RMK A01 T01490095  RH  070%=      5-min Rain = 0
KWE2 120907Z 21002KT 15/10 A301 RMK A01 T01490095  RH  070%=      5-min Rain = 0
KWE2 120908Z 21002KT 15/09 A301 RMK A01 T01490094  RH  070%=      5-min Rain = 0
KWE2 120909Z 21002KT 15/09 A301 RMK A01 T01480093  RH  070%=      5-min Rain = 0
KWE2 120910Z 21001KT 15/09 A301 RMK A01 T01470092  RH  070%=      5-min Rain = 0
KWE2 120911Z 22001KT 15/09 A301 RMK A01 T01460091  RH  070%=      5-min Rain = 0
KWE2 120912Z 22001KT 14/09 A301 RMK A01 T01440091  RH  070%=      5-min Rain = 0
KWE2 120913Z 22001KT 14/09 A301 RMK A01 T01430091  RH  071%=      5-min Rain = 0
KWE2 120914Z 22001KT 14/09 A301 RMK A01 T01430090  RH  070%=      5-min Rain = 0
KWE2 120915Z 22001KT 14/09 A301 RMK A01 T01420089  RH  070%=      5-min Rain = 0
KWE2 120916Z 22001KT 14/09 A301 RMK A01 T01410088  RH  070%=      5-min Rain = 0
KWE2 120917Z 22001KT 14/09 A301 RMK A01 T01400088  RH  071%=      5-min Rain = 0
KWE2 120918Z 22000KT 14/09 A301 RMK A01 T01400089  RH  071%=      5-min Rain = 0
KWE2 120919Z 22000KT 14/09 A301 RMK A01 T01390088  RH  071%=      5-min Rain = 0
KWE2 120920Z 22001KT 14/09 A301 RMK A01 T01390087  RH  071%=      5-min Rain = 0
KWE2 120921Z 22001KT 14/09 A301 RMK A01 T01390086  RH  070%=      5-min Rain = 0
KWE2 120922Z 22000KT 14/09 A301 RMK A01 T01390086  RH  071%=      5-min Rain = 0
KWE2 120923Z 22001KT 14/09 A301 RMK A01 T01390087  RH  071%=      5-min Rain = 0
KWE2 120924Z 22001KT 14/09 A301 RMK A01 T01390090  RH  072%=      5-min Rain = 0
KWE2 120925Z 22001KT 14/09 A301 RMK A01 T01390092  RH  073%=      5-min Rain = 0
KWE2 120926Z 22001KT 14/09 A301 RMK A01 T01390090  RH  072%=      5-min Rain = 0
KWE2 120927Z 22001KT 14/09 A301 RMK A01 T01390092  RH  073%=      5-min Rain = 0
KWE2 120928Z 22001KT 14/10 A301 RMK A01 T01390095  RH  075%=      5-min Rain = 0
KWE2 120929Z 22001KT 14/10 A301 RMK A01 T01390098  RH  076%=      5-min Rain = 0
KWE2 120930Z 22001KT 14/10 A301 RMK A01 T01390100  RH  077%=      5-min Rain = 0
KWE2 120931Z 22001KT 14/10 A3009 RMK A01 T01390099  RH  077%=      5-min Rain = 0
KWE2 120932Z 22001KT 14/10 A3009 RMK A01 T01390099  RH  077%=      5-min Rain = 0
KWE2 120933Z 22001KT 14/10 A3009 RMK A01 T01390100  RH  077%=      5-min Rain = 0
KWE2 120934Z 22001KT 14/10 A3009 RMK A01 T01390099  RH  077%=      5-min Rain = 0
KWE2 120935Z 22001KT 14/10 A3009 RMK A01 T01390097  RH  076%=      5-min Rain = 0
KWE2 120936Z 22001KT 14/10 A3009 RMK A01 T01390096  RH  075%=      5-min Rain = 0
KWE2 120937Z 22000KT 14/10 A3009 RMK A01 T01390097  RH  076%=      5-min Rain = 0
KWE2 120938Z 22000KT 14/10 A3009 RMK A01 T01390099  RH  077%=      5-min Rain = 0
KWE2 120939Z 00000KT 14/10 A3009 RMK A01 T01390100  RH  078%=      5-min Rain = 0
KWE2 120940Z 00000KT 14/10 A3009 RMK A01 T01380101  RH  078%=      5-min Rain = 0
KWE2 120941Z 00000KT 14/10 A3009 RMK A01 T01380101  RH  078%=      5-min Rain = 0
KWE2 120942Z 00000KT 14/10 A3009 RMK A01 T01380100  RH  078%=      5-min Rain = 0
KWE2 120943Z 22000KT 14/10 A3009 RMK A01 T01380099  RH  077%=      5-min Rain = 0
KWE2 120944Z 22000KT 14/10 A3009 RMK A01 T01370099  RH  078%=      5-min Rain = 0
KWE2 120945Z 22001KT 14/10 A3009 RMK A01 T01370100  RH  078%=      5-min Rain = 0
KWE2 120946Z 22001KT 14/10 A3009 RMK A01 T01370099  RH  078%=      5-min Rain = 0
KWE2 120947Z 22001KT 14/10 A3009 RMK A01 T01370098  RH  077%=      5-min Rain = 0
KWE2 120948Z 22001KT 14/10 A3009 RMK A01 T01370097  RH  077%=      5-min Rain = 0
KWE2 120949Z 22001KT 14/10 A3009 RMK A01 T01370096  RH  076%=      5-min Rain = 0
KWE2 120950Z 22001KT 14/10 A3009 RMK A01 T01380096  RH  076%=      5-min Rain = 0
KWE2 120951Z 22000KT 14/10 A3009 RMK A01 T01370095  RH  076%=      5-min Rain = 0
KWE2 120952Z 22000KT 14/10 A3009 RMK A01 T01370095  RH  076%=      5-min Rain = 0
KWE2 120953Z 22000KT 14/10 A3009 RMK A01 T01370095  RH  076%=      5-min Rain = 0
KWE2 120954Z 22001KT 14/10 A3009 RMK A01 T01370095  RH  075%=      5-min Rain = 0
KWE2 120955Z 22001KT 14/09 A3009 RMK A01 T01370093  RH  075%=      5-min Rain = 0
KWE2 120956Z 22000KT 14/09 A3009 RMK A01 T01370094  RH  075%=      5-min Rain = 0
KWE2 120957Z 22001KT 14/10 A3009 RMK A01 T01370095  RH  076%=      5-min Rain = 0
KWE2 120958Z 22000KT 14/10 A3009 RMK A01 T01380097  RH  076%=      5-min Rain = 0
KWE2 120959Z 22001KT 14/10 A3009 RMK A01 T01380098  RH  077%=      5-min Rain = 0
KWE2 121000Z 22001KT 14/10 A3009 RMK A01 T01390096  RH  076%=      5-min Rain = 0
KWE2 121001Z 22000KT 14/10 A3009 RMK A01 T01400097  RH  075%=      5-min Rain = 0
KWE2 121002Z 22000KT 14/10 A3009 RMK A01 T01400097  RH  075%=      5-min Rain = 0
KWE2 121003Z 00000KT 14/10 A3009 RMK A01 T01410098  RH  076%=      5-min Rain = 0
KWE2 121004Z 00000KT 14/10 A3009 RMK A01 T01410099  RH  076%=      5-min Rain = 0
KWE2 121005Z 22000KT 14/10 A3009 RMK A01 T01410100  RH  076%=      5-min Rain = 0
KWE2 121006Z 22001KT 14/10 A3009 RMK A01 T01420101  RH  076%=      5-min Rain = 0
KWE2 121007Z 22001KT 14/10 A3009 RMK A01 T01420101  RH  077%=      5-min Rain = 0
KWE2 121008Z 22001KT 14/10 A3009 RMK A01 T01420102  RH  077%=      5-min Rain = 0
KWE2 121009Z 22001KT 14/10 A3009 RMK A01 T01420102  RH  077%=      5-min Rain = 0
KWE2 121010Z 22001KT 14/10 A3009 RMK A01 T01430102  RH  076%=      5-min Rain = 0
KWE2 121011Z 22001KT 14/10 A3009 RMK A01 T01430102  RH  076%=      5-min Rain = 0
KWE2 121012Z 22001KT 14/10 A3009 RMK A01 T01430101  RH  076%=      5-min Rain = 0
KWE2 121013Z 22001KT 14/10 A3009 RMK A01 T01440102  RH  076%=      5-min Rain = 0
KWE2 121014Z 22001KT 14/10 A3009 RMK A01 T01440102  RH  076%=      5-min Rain = 0
KWE2 121015Z 22001KT 14/10 A3009 RMK A01 T01440101  RH  075%=      5-min Rain = 0
KWE2 121016Z 22001KT 15/10 A3009 RMK A01 T01450102  RH  075%=      5-min Rain = 0
KWE2 121017Z 22001KT 15/10 A3009 RMK A01 T01450102  RH  075%=      5-min Rain = 0
KWE2 121018Z 22000KT 15/10 A3009 RMK A01 T01450102  RH  075%=      5-min Rain = 0
KWE2 121019Z 22000KT 15/10 A3009 RMK A01 T01450101  RH  075%=      5-min Rain = 0
KWE2 121020Z 22000KT 15/10 A3009 RMK A01 T01450101  RH  075%=      5-min Rain = 0
KWE2 121021Z 00000KT 14/10 A3009 RMK A01 T01440099  RH  074%=      5-min Rain = 0
KWE2 121022Z 00000KT 14/10 A3009 RMK A01 T01440098  RH  074%=      5-min Rain = 0
KWE2 121023Z 00000KT 14/10 A3009 RMK A01 T01430097  RH  074%=      5-min Rain = 0
KWE2 121024Z 00000KT 14/10 A3009 RMK A01 T01420097  RH  074%=      5-min Rain = 0
KWE2 121025Z 00000KT 14/10 A3009 RMK A01 T01420097  RH  074%=      5-min Rain = 0
KWE2 121026Z 00000KT 14/10 A3009 RMK A01 T01420097  RH  074%=      5-min Rain = 0
KWE2 121027Z 22000KT 14/10 A3009 RMK A01 T01410097  RH  075%=      5-min Rain = 0
KWE2 121028Z 22000KT 14/10 A3009 RMK A01 T01410098  RH  075%=      5-min Rain = 0
KWE2 121029Z 22000KT 14/10 A3009 RMK A01 T01410098  RH  075%=      5-min Rain = 0
KWE2 121030Z 00000KT 14/10 A3009 RMK A01 T01410099  RH  076%=      5-min Rain = 0
KWE2 121031Z 00000KT 14/10 A3009 RMK A01 T01410100  RH  076%=      5-min Rain = 0
KWE2 121032Z 00000KT 14/10 A3009 RMK A01 T01410100  RH  076%=      5-min Rain = 0
KWE2 121033Z 00000KT 14/10 A3009 RMK A01 T01410099  RH  076%=      5-min Rain = 0
KWE2 121034Z 00000KT 14/10 A3009 RMK A01 T01400098  RH  076%=      5-min Rain = 0
KWE2 121035Z 17000KT 14/10 A3009 RMK A01 T01400099  RH  076%=      5-min Rain = 0
KWE2 121036Z 16001KT 14/10 A3009 RMK A01 T01400098  RH  076%=      5-min Rain = 0
KWE2 121037Z 15001KT 14/10 A3009 RMK A01 T01400099  RH  076%=      5-min Rain = 0
KWE2 121038Z 16001KT 14/10 A3009 RMK A01 T01410101  RH  077%=      5-min Rain = 0
KWE2 121039Z 16001KT 14/10 A3009 RMK A01 T01410102  RH  077%=      5-min Rain = 0
KWE2 121040Z 16001KT 14/10 A3009 RMK A01 T01410102  RH  077%=      5-min Rain = 0
KWE2 121041Z 16001KT 14/10 A3009 RMK A01 T01410101  RH  077%=      5-min Rain = 0
KWE2 121042Z 16001KT 14/10 A3009 RMK A01 T01410100  RH  076%=      5-min Rain = 0
KWE2 121043Z 16001KT 14/10 A3009 RMK A01 T01410100  RH  076%=      5-min Rain = 0
KWE2 121044Z 16001KT 14/10 A3009 RMK A01 T01420099  RH  075%=      5-min Rain = 0
KWE2 121045Z 16001KT 14/10 A3009 RMK A01 T01420099  RH  075%=      5-min Rain = 0
KWE2 121046Z 16001KT 14/10 A3009 RMK A01 T01430099  RH  075%=      5-min Rain = 0
KWE2 121047Z 16001KT 14/10 A3009 RMK A01 T01440098  RH  074%=      5-min Rain = 0
KWE2 121048Z 16001KT 14/10 A3009 RMK A01 T01440098  RH  074%=      5-min Rain = 0
KWE2 121049Z 16000KT 15/10 A3009 RMK A01 T01450098  RH  073%=      5-min Rain = 0
KWE2 121050Z 16000KT 15/10 A3009 RMK A01 T01450098  RH  073%=      5-min Rain = 0
KWE2 121051Z 00000KT 15/10 A3009 RMK A01 T01450097  RH  073%=      5-min Rain = 0
KWE2 121052Z 00000KT 14/09 A3009 RMK A01 T01430094  RH  072%=      5-min Rain = 0
KWE2 121053Z 25001KT 14/09 A3009 RMK A01 T01400092  RH  073%=      5-min Rain = 0
KWE2 121054Z 26002KT 14/09 A3009 RMK A01 T01370090  RH  073%=      5-min Rain = 0
KWE2 121055Z 25001KT 14/09 A3009 RMK A01 T01360091  RH  074%=      5-min Rain = 0
KWE2 121056Z 25001KT 14/09 A3009 RMK A01 T01350091  RH  074%=      5-min Rain = 0
KWE2 121057Z 25000KT 14/09 A3009 RMK A01 T01350091  RH  075%=      5-min Rain = 0
KWE2 121058Z 25000KT 14/09 A3009 RMK A01 T01350091  RH  075%=      5-min Rain = 0
KWE2 121059Z 00000KT 13/09 A3009 RMK A01 T01340091  RH  075%=      5-min Rain = 0
KWE2 121100Z 00000KT 13/09 A3009 RMK A01 T01340090  RH  075%=      5-min Rain = 0
KWE2 121101Z 31001KT 13/09 A3009 RMK A01 T01340090  RH  075%=      5-min Rain = 0
KWE2 121102Z 31001KT 13/09 A3009 RMK A01 T01340090  RH  075%=      5-min Rain = 0
KWE2 121103Z 31001KT 13/09 A3009 RMK A01 T01330090  RH  075%=      5-min Rain = 0
KWE2 121104Z 31001KT 13/09 A3009 RMK A01 T01340090  RH  075%=      5-min Rain = 0
KWE2 121105Z 31001KT 13/09 A3009 RMK A01 T01330088  RH  074%=      5-min Rain = 0
KWE2 121106Z 31001KT 13/09 A3009 RMK A01 T01320087  RH  074%=      5-min Rain = 0
KWE2 121107Z 31001KT 13/09 A3009 RMK A01 T01310086  RH  074%=      5-min Rain = 0
KWE2 121108Z 31001KT 13/09 A3009 RMK A01 T01300089  RH  076%=      5-min Rain = 0
KWE2 121109Z 31001KT 13/09 A3009 RMK A01 T01300092  RH  077%=      5-min Rain = 0
KWE2 121110Z 31001KT 13/09 A3009 RMK A01 T01300094  RH  078%=      5-min Rain = 0
KWE2 121111Z 31001KT 13/10 A3009 RMK A01 T01310096  RH  079%=      5-min Rain = 0
KWE2 121112Z 31001KT 13/10 A3009 RMK A01 T01320095  RH  078%=      5-min Rain = 0
KWE2 121113Z 31001KT 13/09 A3009 RMK A01 T01320091  RH  076%=      5-min Rain = 0
KWE2 121114Z 31001KT 13/09 A3009 RMK A01 T01320092  RH  077%=      5-min Rain = 0
KWE2 121115Z 31001KT 13/09 A3009 RMK A01 T01320094  RH  078%=      5-min Rain = 0
KWE2 121116Z 31001KT 13/10 A3009 RMK A01 T01320095  RH  078%=      5-min Rain = 0
KWE2 121117Z 31002KT 13/09 A3009 RMK A01 T01320094  RH  078%=      5-min Rain = 0
KWE2 121118Z 31002KT 13/09 A3009 RMK A01 T01310094  RH  078%=      5-min Rain = 0
KWE2 121119Z 31002KT 13/10 A3009 RMK A01 T01310095  RH  079%=      5-min Rain = 0
KWE2 121120Z 31002KT 13/09 A3009 RMK A01 T01310094  RH  078%=      5-min Rain = 0
KWE2 121121Z 32003KT 13/09 A3009 RMK A01 T01310093  RH  078%=      5-min Rain = 0
KWE2 121122Z 32004KT 13/09 A301 RMK A01 T01300092  RH  077%=      5-min Rain = 0
KWE2 121123Z 33003KT 13/09 A301 RMK A01 T01300092  RH  078%=      5-min Rain = 0
KWE2 121124Z 33002KT 13/09 A301 RMK A01 T01290093  RH  079%=      5-min Rain = 0
KWE2 121125Z 32003KT 13/09 A301 RMK A01 T01290093  RH  079%=      5-min Rain = 0
KWE2 121126Z 32002KT 13/09 A301 RMK A01 T01290093  RH  079%=      5-min Rain = 0
KWE2 121127Z 33002KT 13/09 A301 RMK A01 T01290092  RH  078%=      5-min Rain = 0
KWE2 121128Z 34003KT 13/09 A301 RMK A01 T01290092  RH  078%=      5-min Rain = 0
KWE2 121129Z 33003KT 13/09 A301 RMK A01 T01290092  RH  078%=      5-min Rain = 0
KWE2 121130Z 33003KT 13/09 A301 RMK A01 T01290092  RH  078%=      5-min Rain = 0
KWE2 121131Z 33004KT 13/09 A301 RMK A01 T01290093  RH  079%=      5-min Rain = 0
KWE2 121132Z 33004KT 13/09 A301 RMK A01 T01290094  RH  079%=      5-min Rain = 0
KWE2 121133Z 33003KT 13/10 A301 RMK A01 T01290095  RH  079%=      5-min Rain = 0
KWE2 121134Z 33003KT 13/10 A301 RMK A01 T01300095  RH  079%=      5-min Rain = 0
KWE2 121135Z 33003KT 13/10 A3009 RMK A01 T01300095  RH  079%=      5-min Rain = 0
KWE2 121136Z 33003KT 13/10 A3009 RMK A01 T01300095  RH  079%=      5-min Rain = 0
KWE2 121137Z 33004KT 13/10 A3009 RMK A01 T01290096  RH  080%=      5-min Rain = 0
KWE2 121138Z 33004KT 13/10 A3009 RMK A01 T01290097  RH  080%=      5-min Rain = 0
KWE2 121139Z 33004KT 13/10 A3009 RMK A01 T01290095  RH  080%=      5-min Rain = 0
KWE2 121140Z 33004KT 13/10 A3009 RMK A01 T01280095  RH  080%=      5-min Rain = 0
KWE2 121141Z 32004KT 13/10 A3009 RMK A01 T01280096  RH  081%=      5-min Rain = 0
KWE2 121142Z 32004KT 13/10 A3009 RMK A01 T01280095  RH  080%=      5-min Rain = 0
KWE2 121143Z 32004KT 13/09 A3009 RMK A01 T01270094  RH  080%=      5-min Rain = 0
KWE2 121144Z 33004KT 13/09 A3009 RMK A01 T01270094  RH  080%=      5-min Rain = 0
KWE2 121145Z 33004KT 13/09 A3009 RMK A01 T01270094  RH  080%=      5-min Rain = 0
KWE2 121146Z 33004KT 13/10 A3009 RMK A01 T01270095  RH  081%=      5-min Rain = 0
KWE2 121147Z 33004KT 13/09 A3009 RMK A01 T01270094  RH  080%=      5-min Rain = 0
KWE2 121148Z 33004KT 13/09 A3009 RMK A01 T01270094  RH  080%=      5-min Rain = 0
KWE2 121149Z 33004KT 13/09 A3009 RMK A01 T01260093  RH  080%=      5-min Rain = 0
KWE2 121150Z 33004KT 13/09 A3009 RMK A01 T01260093  RH  080%=      5-min Rain = 0
KWE2 121151Z 33004KT 13/09 A3009 RMK A01 T01260092  RH  080%=      5-min Rain = 0
KWE2 121152Z 33004KT 13/09 A3009 RMK A01 T01260093  RH  080%=      5-min Rain = 0
KWE2 121153Z 33004KT 13/09 A3009 RMK A01 T01260092  RH  080%=      5-min Rain = 0
KWE2 121154Z 33005KT 13/09 A3009 RMK A01 T01250092  RH  080%=      5-min Rain = 0
KWE2 121155Z 33005KT 13/09 A3009 RMK A01 T01250092  RH  080%=      5-min Rain = 0
KWE2 121156Z 33005KT 13/09 A301 RMK A01 T01250092  RH  080%=      5-min Rain = 0
KWE2 121157Z 33005KT 13/09 A301 RMK A01 T01250092  RH  080%=      5-min Rain = 0
KWE2 121158Z 33004KT 12/09 A301 RMK A01 T01240092  RH  080%=      5-min Rain = 0
KWE2 121159Z 33004KT 12/09 A301 RMK A01 T01240092  RH  081%=      5-min Rain = 0
KWE2 121200Z 33004KT 12/09 A301 RMK A01 T01240092  RH  081%=      5-min Rain = 0
KWE2 121201Z 33004KT 12/09 A301 RMK A01 T01240092  RH  081%=      5-min Rain = 0
KWE2 121202Z 33004KT 12/09 A301 RMK A01 T01240092  RH  081%=      5-min Rain = 0
KWE2 121203Z 33004KT 12/09 A301 RMK A01 T01240092  RH  081%=      5-min Rain = 0
KWE2 121204Z 33004KT 12/09 A301 RMK A01 T01240092  RH  081%=      5-min Rain = 0
KWE2 121205Z 33004KT 12/09 A301 RMK A01 T01240092  RH  081%=      5-min Rain = 0
KWE2 121206Z 33004KT 12/09 A301 RMK A01 T01240092  RH  081%=      5-min Rain = 0
KWE2 121207Z 34004KT 13/09 A301 RMK A01 T01250093  RH  081%=      5-min Rain = 0
KWE2 121208Z 34004KT 13/09 A301 RMK A01 T01250094  RH  081%=      5-min Rain = 0
KWE2 121209Z 33004KT 13/09 A301 RMK A01 T01250093  RH  081%=      5-min Rain = 0
KWE2 121210Z 34003KT 13/09 A301 RMK A01 T01260093  RH  080%=      5-min Rain = 0
KWE2 121211Z 34003KT 13/09 A301 RMK A01 T01260092  RH  080%=      5-min Rain = 0
KWE2 121212Z 34003KT 13/09 A301 RMK A01 T01260091  RH  079%=      5-min Rain = 0
KWE2 121213Z 35003KT 13/09 A301 RMK A01 T01260091  RH  079%=      5-min Rain = 0
KWE2 121214Z 35004KT 13/09 A301 RMK A01 T01260092  RH  079%=      5-min Rain = 0
KWE2 121215Z 35004KT 13/09 A301 RMK A01 T01260093  RH  080%=      5-min Rain = 0
KWE2 121216Z 35004KT 13/10 A301 RMK A01 T01270095  RH  081%=      5-min Rain = 0
KWE2 121217Z 36004KT 13/10 A301 RMK A01 T01270096  RH  081%=      5-min Rain = 0
KWE2 121218Z 00004KT 13/10 A301 RMK A01 T01270097  RH  082%=      5-min Rain = 0
KWE2 121219Z 01003KT 13/10 A301 RMK A01 T01280099  RH  082%=      5-min Rain = 0
KWE2 121220Z 02003KT 13/10 A301 RMK A01 T01300099  RH  082%=      5-min Rain = 0
KWE2 121221Z 02003KT 13/10 A301 RMK A01 T01310099  RH  081%=      5-min Rain = 0
KWE2 121222Z 03002KT 13/10 A301 RMK A01 T01320099  RH  081%=      5-min Rain = 0
KWE2 121223Z 04002KT 13/10 A301 RMK A01 T01320099  RH  080%=      5-min Rain = 0
KWE2 121224Z 05002KT 13/10 A301 RMK A01 T01320099  RH  080%=      5-min Rain = 0
KWE2 121225Z 04002KT 13/10 A301 RMK A01 T01330097  RH  079%=      5-min Rain = 0
KWE2 121226Z 04002KT 13/10 A301 RMK A01 T01320097  RH  079%=      5-min Rain = 0
KWE2 121227Z 04002KT 13/10 A301 RMK A01 T01320097  RH  079%=      5-min Rain = 0
KWE2 121228Z 04001KT 13/10 A301 RMK A01 T01330097  RH  079%=      5-min Rain = 0
KWE2 121229Z 04002KT 13/10 A301 RMK A01 T01330098  RH  080%=      5-min Rain = 0
KWE2 121230Z 04002KT 13/10 A301 RMK A01 T01330099  RH  080%=      5-min Rain = 0
KWE2 121231Z 04001KT 13/10 A301 RMK A01 T01330100  RH  080%=      5-min Rain = 0
KWE2 121232Z 04001KT 13/10 A301 RMK A01 T01330098  RH  080%=      5-min Rain = 0
KWE2 121233Z 04002KT 13/10 A301 RMK A01 T01330098  RH  079%=      5-min Rain = 0
KWE2 121234Z 04002KT 13/10 A301 RMK A01 T01330097  RH  079%=      5-min Rain = 0
KWE2 121235Z 03002KT 13/10 A301 RMK A01 T01340097  RH  079%=      5-min Rain = 0
KWE2 121236Z 03002KT 13/10 A301 RMK A01 T01340096  RH  078%=      5-min Rain = 0
KWE2 121237Z 03002KT 13/10 A301 RMK A01 T01340096  RH  078%=      5-min Rain = 0
KWE2 121238Z 02002KT 13/10 A301 RMK A01 T01340096  RH  078%=      5-min Rain = 0
KWE2 121239Z 02002KT 13/10 A301 RMK A01 T01330095  RH  078%=      5-min Rain = 0
KWE2 121240Z 02002KT 13/10 A301 RMK A01 T01330095  RH  078%=      5-min Rain = 0
KWE2 121241Z 02002KT 13/10 A301 RMK A01 T01320095  RH  078%=      5-min Rain = 0
KWE2 121242Z 02002KT 13/09 A301 RMK A01 T01310094  RH  078%=      5-min Rain = 0
KWE2 121243Z 02002KT 13/09 A301 RMK A01 T01300093  RH  078%=      5-min Rain = 0
KWE2 121244Z 02001KT 13/09 A301 RMK A01 T01290093  RH  079%=      5-min Rain = 0
KWE2 121245Z 02001KT 13/09 A301 RMK A01 T01290094  RH  079%=      5-min Rain = 0
KWE2 121246Z 02001KT 13/10 A301 RMK A01 T01290095  RH  080%=      5-min Rain = 0
KWE2 121247Z 01001KT 13/10 A301 RMK A01 T01310096  RH  080%=      5-min Rain = 0
KWE2 121248Z 01001KT 13/10 A301 RMK A01 T01330096  RH  078%=      5-min Rain = 0
KWE2 121249Z 01001KT 13/09 A301 RMK A01 T01330094  RH  077%=      5-min Rain = 0
KWE2 121250Z 01001KT 13/09 A301 RMK A01 T01310094  RH  078%=      5-min Rain = 0
KWE2 121251Z 00002KT 13/10 A301 RMK A01 T01300095  RH  079%=      5-min Rain = 0
KWE2 121252Z 00002KT 13/10 A301 RMK A01 T01300095  RH  080%=      5-min Rain = 0
KWE2 121253Z 00002KT 13/10 A301 RMK A01 T01290095  RH  080%=      5-min Rain = 0
KWE2 121254Z 01002KT 13/10 A301 RMK A01 T01300096  RH  080%=      5-min Rain = 0
KWE2 121255Z 01002KT 13/10 A301 RMK A01 T01300097  RH  080%=      5-min Rain = 0
KWE2 121256Z 00002KT 13/10 A301 RMK A01 T01310098  RH  080%=      5-min Rain = 0
KWE2 121257Z 36002KT 13/10 A301 RMK A01 T01320097  RH  079%=      5-min Rain = 0
KWE2 121258Z 35001KT 13/10 A301 RMK A01 T01320096  RH  079%=      5-min Rain = 0
KWE2 121259Z 35001KT 13/10 A301 RMK A01 T01320096  RH  079%=      5-min Rain = 0
KWE2 121300Z 35001KT 13/10 A301 RMK A01 T01320096  RH  079%=      5-min Rain = 0
KWE2 121301Z 35001KT 13/10 A301 RMK A01 T01320096  RH  079%=      5-min Rain = 0
KWE2 121302Z 35002KT 13/10 A301 RMK A01 T01330097  RH  078%=      5-min Rain = 0
KWE2 121303Z 35002KT 13/10 A301 RMK A01 T01340097  RH  078%=      5-min Rain = 0
KWE2 121304Z 35002KT 14/10 A301 RMK A01 T01350096  RH  078%=      5-min Rain = 0
KWE2 121305Z 34002KT 14/10 A301 RMK A01 T01350096  RH  077%=      5-min Rain = 0
KWE2 121306Z 33003KT 14/10 A301 RMK A01 T01360097  RH  077%=      5-min Rain = 0
KWE2 121307Z 32003KT 14/10 A301 RMK A01 T01360097  RH  077%=      5-min Rain = 0
KWE2 121308Z 32003KT 14/10 A301 RMK A01 T01360097  RH  077%=      5-min Rain = 0
KWE2 121309Z 31003KT 14/10 A301 RMK A01 T01360097  RH  077%=      5-min Rain = 0
KWE2 121310Z 30003KT 14/10 A3011 RMK A01 T01360097  RH  077%=      5-min Rain = 0
KWE2 121311Z 31003KT 14/10 A3011 RMK A01 T01360097  RH  077%=      5-min Rain = 0
KWE2 121312Z 32003KT 14/10 A301 RMK A01 T01360098  RH  077%=      5-min Rain = 0
KWE2 121313Z 32003KT 14/10 A301 RMK A01 T01370098  RH  077%=      5-min Rain = 0
KWE2 121314Z 32003KT 14/10 A301 RMK A01 T01370098  RH  077%=      5-min Rain = 0
KWE2 121315Z 33003KT 14/10 A301 RMK A01 T01380099  RH  077%=      5-min Rain = 0
KWE2 121316Z 33003KT 14/10 A301 RMK A01 T01380100  RH  077%=      5-min Rain = 0
KWE2 121317Z 33002KT 14/10 A301 RMK A01 T01390100  RH  077%=      5-min Rain = 0
KWE2 121318Z 31001KT 14/10 A301 RMK A01 T01400101  RH  077%=      5-min Rain = 0
KWE2 121319Z 24001KT 14/10 A3011 RMK A01 T01410101  RH  077%=      5-min Rain = 0
KWE2 121320Z 25002KT 14/10 A3011 RMK A01 T01410101  RH  077%=      5-min Rain = 0
KWE2 121321Z 27001KT 14/10 A3011 RMK A01 T01420101  RH  077%=      5-min Rain = 0
KWE2 121322Z 31002KT 14/10 A3011 RMK A01 T01430102  RH  076%=      5-min Rain = 0
KWE2 121323Z 32002KT 14/10 A3011 RMK A01 T01430103  RH  076%=      5-min Rain = 0
KWE2 121324Z 32003KT 14/10 A3011 RMK A01 T01440103  RH  076%=      5-min Rain = 0
KWE2 121325Z 33002KT 14/10 A3011 RMK A01 T01440103  RH  076%=      5-min Rain = 0
KWE2 121326Z 32002KT 15/10 A3011 RMK A01 T01450103  RH  076%=      5-min Rain = 0
KWE2 121327Z 31002KT 15/10 A3011 RMK A01 T01450104  RH  076%=      5-min Rain = 0
KWE2 121328Z 31002KT 15/10 A3011 RMK A01 T01460104  RH  076%=      5-min Rain = 0
KWE2 121329Z 31001KT 15/11 A3011 RMK A01 T01470105  RH  076%=      5-min Rain = 0
KWE2 121330Z 31002KT 15/11 A3011 RMK A01 T01470105  RH  076%=      5-min Rain = 0
KWE2 121331Z 32002KT 15/11 A3011 RMK A01 T01480105  RH  076%=      5-min Rain = 0
KWE2 121332Z 32002KT 15/11 A3011 RMK A01 T01490106  RH  075%=      5-min Rain = 0
KWE2 121333Z 33001KT 15/11 A3011 RMK A01 T01500106  RH  075%=      5-min Rain = 0
KWE2 121334Z 31002KT 15/11 A3011 RMK A01 T01510106  RH  075%=      5-min Rain = 0
KWE2 121335Z 31002KT 15/11 A3011 RMK A01 T01510106  RH  074%=      5-min Rain = 0
KWE2 121336Z 32002KT 15/11 A3011 RMK A01 T01530106  RH  074%=      5-min Rain = 0
KWE2 121337Z 33001KT 15/11 A3011 RMK A01 T01530107  RH  074%=      5-min Rain = 0
KWE2 121338Z 34002KT 16/11 A3011 RMK A01 T01550107  RH  073%=      5-min Rain = 0
KWE2 121339Z 34002KT 16/11 A3011 RMK A01 T01560106  RH  072%=      5-min Rain = 0
KWE2 121340Z 35002KT 16/11 A3011 RMK A01 T01570106  RH  072%=      5-min Rain = 0
KWE2 121341Z 35002KT 16/11 A3011 RMK A01 T01570107  RH  072%=      5-min Rain = 0
KWE2 121342Z 35002KT 16/11 A3011 RMK A01 T01580107  RH  071%=      5-min Rain = 0
KWE2 121343Z 00001KT 16/11 A3011 RMK A01 T01590107  RH  071%=      5-min Rain = 0
KWE2 121344Z 00001KT 16/11 A3011 RMK A01 T01600108  RH  071%=      5-min Rain = 0
KWE2 121345Z 01001KT 16/11 A3011 RMK A01 T01610108  RH  070%=      5-min Rain = 0
KWE2 121346Z 02001KT 16/11 A3011 RMK A01 T01620107  RH  070%=      5-min Rain = 0
KWE2 121347Z 02001KT 16/11 A3011 RMK A01 T01630109  RH  070%=      5-min Rain = 0
KWE2 121348Z 02000KT 16/11 A3011 RMK A01 T01640109  RH  070%=      5-min Rain = 0
KWE2 121349Z 02000KT 17/11 A3011 RMK A01 T01650110  RH  070%=      5-min Rain = 0
KWE2 121350Z 02001KT 17/11 A3011 RMK A01 T01660109  RH  069%=      5-min Rain = 0
KWE2 121351Z 01002KT 17/11 A3011 RMK A01 T01660109  RH  069%=      5-min Rain = 0
KWE2 121352Z 00002KT 17/11 A3011 RMK A01 T01670109  RH  069%=      5-min Rain = 0
KWE2 121353Z 01002KT 17/11 A3011 RMK A01 T01670109  RH  069%=      5-min Rain = 0
KWE2 121354Z 01002KT 17/11 A3011 RMK A01 T01680110  RH  069%=      5-min Rain = 0
KWE2 121355Z 01002KT 17/11 A3011 RMK A01 T01690111  RH  068%=      5-min Rain = 0
KWE2 121356Z 01001KT 17/11 A3011 RMK A01 T01700111  RH  068%=      5-min Rain = 0
KWE2 121357Z 00001KT 17/11 A3011 RMK A01 T01710111  RH  067%=      5-min Rain = 0
KWE2 121358Z 00001KT 17/11 A3011 RMK A01 T01730111  RH  067%=      5-min Rain = 0
KWE2 121359Z 00001KT 17/11 A3011 RMK A01 T01740111  RH  067%=      5-min Rain = 0
KWE2 121400Z 01001KT 18/11 A3011 RMK A01 T01750111  RH  066%=      5-min Rain = 0
KWE2 121401Z 35000KT 18/11 A3011 RMK A01 T01760112  RH  066%=      5-min Rain = 0
KWE2 121402Z 35001KT 18/11 A3011 RMK A01 T01770112  RH  066%=      5-min Rain = 0
KWE2 121403Z 36001KT 18/11 A3011 RMK A01 T01780112  RH  065%=      5-min Rain = 0
KWE2 121404Z 36001KT 18/11 A301 RMK A01 T01790113  RH  065%=      5-min Rain = 0
KWE2 121405Z 00001KT 18/11 A301 RMK A01 T01800114  RH  065%=      5-min Rain = 0
KWE2 121406Z 00001KT 18/11 A3011 RMK A01 T01810114  RH  065%=      5-min Rain = 0
KWE2 121407Z 02001KT 18/11 A3011 RMK A01 T01820113  RH  064%=      5-min Rain = 0
KWE2 121408Z 02000KT 18/11 A3011 RMK A01 T01830114  RH  064%=      5-min Rain = 0
KWE2 121409Z 01000KT 18/12 A3011 RMK A01 T01840116  RH  064%=      5-min Rain = 0
KWE2 121410Z 00001KT 19/12 A3011 RMK A01 T01850116  RH  064%=      5-min Rain = 0
KWE2 121411Z 00000KT 19/11 A3011 RMK A01 T01870114  RH  063%=      5-min Rain = 0
KWE2 121412Z 00000KT 19/12 A3011 RMK A01 T01880115  RH  063%=      5-min Rain = 0
KWE2 121413Z 00001KT 19/12 A3011 RMK A01 T01900116  RH  062%=      5-min Rain = 0
KWE2 121414Z 00001KT 19/12 A3011 RMK A01 T01900115  RH  061%=      5-min Rain = 0
KWE2 121415Z 00000KT 19/12 A3011 RMK A01 T01910115  RH  061%=      5-min Rain = 0
KWE2 121416Z 00000KT 19/12 A3011 RMK A01 T01930116  RH  061%=      5-min Rain = 0
KWE2 121417Z 33000KT 19/12 A3011 RMK A01 T01930117  RH  061%=      5-min Rain = 0
KWE2 121418Z 31001KT 19/12 A3011 RMK A01 T01940118  RH  062%=      5-min Rain = 0
KWE2 121419Z 33000KT 19/12 A3011 RMK A01 T01940119  RH  062%=      5-min Rain = 0
KWE2 121420Z 34001KT 20/12 A3011 RMK A01 T01950120  RH  062%=      5-min Rain = 0
KWE2 121421Z 34001KT 20/12 A3011 RMK A01 T01960117  RH  060%=      5-min Rain = 0
KWE2 121422Z 35001KT 20/12 A3011 RMK A01 T01960116  RH  060%=      5-min Rain = 0
KWE2 121423Z 00002KT 20/12 A3011 RMK A01 T01960115  RH  060%=      5-min Rain = 0
KWE2 121424Z 01001KT 20/12 A3011 RMK A01 T01960116  RH  060%=      5-min Rain = 0
KWE2 121425Z 32001KT 20/12 A3011 RMK A01 T01960117  RH  060%=      5-min Rain = 0
KWE2 121426Z 32000KT 20/12 A3011 RMK A01 T01970118  RH  060%=      5-min Rain = 0
KWE2 121427Z 32000KT 20/12 A3011 RMK A01 T01990119  RH  060%=      5-min Rain = 0
KWE2 121428Z 00000KT 20/12 A3011 RMK A01 T02010122  RH  060%=      5-min Rain = 0
KWE2 121429Z 00000KT 20/12 A3011 RMK A01 T02030121  RH  059%=      5-min Rain = 0
KWE2 121430Z 30000KT 20/12 A3011 RMK A01 T02040121  RH  059%=      5-min Rain = 0
KWE2 121431Z 30000KT 21/12 A3011 RMK A01 T02050119  RH  058%=      5-min Rain = 0
KWE2 121432Z 30001KT 21/12 A3011 RMK A01 T02060119  RH  058%=      5-min Rain = 0
KWE2 121433Z 30001KT 21/12 A3011 RMK A01 T02050117  RH  057%=      5-min Rain = 0
KWE2 121434Z 30001KT 21/12 A3011 RMK A01 T02060118  RH  057%=      5-min Rain = 0
KWE2 121435Z 30001KT 21/12 A3011 RMK A01 T02060119  RH  057%=      5-min Rain = 0
KWE2 121436Z 33000KT 21/12 A3011 RMK A01 T02060121  RH  058%=      5-min Rain = 0
KWE2 121437Z 01000KT 21/12 A3011 RMK A01 T02060122  RH  058%=      5-min Rain = 0
KWE2 121438Z 00000KT 21/12 A3011 RMK A01 T02070121  RH  058%=      5-min Rain = 0
KWE2 121439Z 36001KT 21/12 A3011 RMK A01 T02080121  RH  057%=      5-min Rain = 0
KWE2 121440Z 35001KT 21/12 A3011 RMK A01 T02090121  RH  057%=      5-min Rain = 0
KWE2 121441Z 35001KT 21/12 A3011 RMK A01 T02090121  RH  057%=      5-min Rain = 0
KWE2 121442Z 35001KT 21/12 A3011 RMK A01 T02100122  RH  057%=      5-min Rain = 0
KWE2 121443Z 35001KT 21/12 A3011 RMK A01 T02110121  RH  056%=      5-min Rain = 0
KWE2 121444Z 35002KT 21/12 A3011 RMK A01 T02110121  RH  056%=      5-min Rain = 0
KWE2 121445Z 34002KT 21/12 A3011 RMK A01 T02110120  RH  056%=      5-min Rain = 0
KWE2 121446Z 33002KT 21/12 A3011 RMK A01 T02120121  RH  056%=      5-min Rain = 0
KWE2 121447Z 34002KT 21/12 A3011 RMK A01 T02120121  RH  056%=      5-min Rain = 0
KWE2 121448Z 34001KT 21/12 A3011 RMK A01 T02130121  RH  056%=      5-min Rain = 0
KWE2 121449Z 01001KT 21/12 A3011 RMK A01 T02140120  RH  055%=      5-min Rain = 0
KWE2 121450Z 02002KT 22/12 A3011 RMK A01 T02150121  RH  055%=      5-min Rain = 0
KWE2 121451Z 02001KT 22/12 A3011 RMK A01 T02150120  RH  055%=      5-min Rain = 0
KWE2 121452Z 03001KT 22/12 A3011 RMK A01 T02160120  RH  055%=      5-min Rain = 0
KWE2 121453Z 02001KT 22/12 A3011 RMK A01 T02160121  RH  055%=      5-min Rain = 0
KWE2 121454Z 00001KT 22/12 A3011 RMK A01 T02180123  RH  055%=      5-min Rain = 0
KWE2 121455Z 01001KT 22/12 A3011 RMK A01 T02190123  RH  054%=      5-min Rain = 0
KWE2 121456Z 01001KT 22/12 A3011 RMK A01 T02200122  RH  054%=      5-min Rain = 0
KWE2 121457Z 02000KT 22/12 A3011 RMK A01 T02210121  RH  053%=      5-min Rain = 0
KWE2 121458Z 01000KT 22/12 A3011 RMK A01 T02240123  RH  053%=      5-min Rain = 0
KWE2 121459Z 35001KT 23/12 A3011 RMK A01 T02260123  RH  052%=      5-min Rain = 0
KWE2 121500Z 35001KT 23/12 A3011 RMK A01 T02280123  RH  052%=      5-min Rain = 0
KWE2 121501Z 35001KT 23/12 A3011 RMK A01 T02290123  RH  051%=      5-min Rain = 0
KWE2 121502Z 04000KT 23/12 A3011 RMK A01 T02320123  RH  050%=      5-min Rain = 0
KWE2 121503Z 01000KT 23/12 A3011 RMK A01 T02340122  RH  049%=      5-min Rain = 0
KWE2 121504Z 01001KT 24/12 A3011 RMK A01 T02350122  RH  049%=      5-min Rain = 0
KWE2 121505Z 02002KT 24/12 A3011 RMK A01 T02350121  RH  049%=      5-min Rain = 0
KWE2 121506Z 01001KT 23/12 A3011 RMK A01 T02340121  RH  049%=      5-min Rain = 0
KWE2 121507Z 01001KT 23/12 A3011 RMK A01 T02340122  RH  049%=      5-min Rain = 0
KWE2 121508Z 34002KT 24/12 A3011 RMK A01 T02350119  RH  048%=      5-min Rain = 0
KWE2 121509Z 36001KT 23/12 A3011 RMK A01 T02340119  RH  048%=      5-min Rain = 0
KWE2 121510Z 35000KT 23/12 A3011 RMK A01 T02340119  RH  048%=      5-min Rain = 0
KWE2 121511Z 00001KT 23/12 A3011 RMK A01 T02340119  RH  048%=      5-min Rain = 0
KWE2 121512Z 02001KT 24/12 A3011 RMK A01 T02350118  RH  048%=      5-min Rain = 0
KWE2 121513Z 01001KT 24/12 A301 RMK A01 T02360116  RH  047%=      5-min Rain = 0
KWE2 121514Z 01002KT 24/11 A301 RMK A01 T02370112  RH  045%=      5-min Rain = 0
KWE2 121515Z 01002KT 24/11 A301 RMK A01 T02380110  RH  045%=      5-min Rain = 0
KWE2 121516Z 00001KT 24/11 A301 RMK A01 T02380111  RH  045%=      5-min Rain = 0
KWE2 121517Z 00000KT 24/11 A301 RMK A01 T02380112  RH  045%=      5-min Rain = 0
KWE2 121518Z 34002KT 24/11 A301 RMK A01 T02400113  RH  045%=      5-min Rain = 0
KWE2 121519Z 35002KT 24/11 A301 RMK A01 T02420111  RH  044%=      5-min Rain = 0
KWE2 121520Z 32001KT 24/11 A301 RMK A01 T02420110  RH  043%=      5-min Rain = 0
KWE2 121521Z 31001KT 24/11 A301 RMK A01 T02420110  RH  043%=      5-min Rain = 0
KWE2 121522Z 35001KT 24/11 A301 RMK A01 T02420110  RH  043%=      5-min Rain = 0
KWE2 121523Z 36001KT 24/11 A301 RMK A01 T02420110  RH  043%=      5-min Rain = 0
KWE2 121524Z 01002KT 24/11 A301 RMK A01 T02430111  RH  043%=      5-min Rain = 0
KWE2 121525Z 36001KT 24/11 A301 RMK A01 T02440112  RH  043%=      5-min Rain = 0
KWE2 121526Z 35002KT 25/11 A301 RMK A01 T02450110  RH  043%=      5-min Rain = 0
KWE2 121527Z 00002KT 25/11 A301 RMK A01 T02460110  RH  043%=      5-min Rain = 0
KWE2 121528Z 33002KT 25/11 A301 RMK A01 T02460110  RH  042%=      5-min Rain = 0
KWE2 121529Z 26001KT 25/11 A301 RMK A01 T02460110  RH  042%=      5-min Rain = 0
KWE2 121530Z 00000KT 25/11 A301 RMK A01 T02470109  RH  042%=      5-min Rain = 0
KWE2 121531Z 24000KT 25/11 A301 RMK A01 T02500111  RH  042%=      5-min Rain = 0
KWE2 121532Z 30001KT 25/11 A301 RMK A01 T02520111  RH  041%=      5-min Rain = 0
KWE2 121533Z 31003KT 25/11 A301 RMK A01 T02530105  RH  039%=      5-min Rain = 0
KWE2 121534Z 30003KT 25/10 A301 RMK A01 T02530102  RH  038%=      5-min Rain = 0
KWE2 121535Z 31003KT 25/10 A301 RMK A01 T02520100  RH  038%=      5-min Rain = 0
KWE2 121536Z 30002KT 25/10 A301 RMK A01 T02520099  RH  038%=      5-min Rain = 0
KWE2 121537Z 28003KT 25/10 A301 RMK A01 T02510102  RH  039%=      5-min Rain = 0
KWE2 121538Z 28003KT 25/11 A301 RMK A01 T02510105  RH  040%=      5-min Rain = 0
KWE2 121539Z 29003KT 25/10 A301 RMK A01 T02500103  RH  039%=      5-min Rain = 0
KWE2 121540Z 28001KT 25/10 A3011 RMK A01 T02500103  RH  040%=      5-min Rain = 0
KWE2 121541Z 30003KT 25/11 A301 RMK A01 T02500105  RH  040%=      5-min Rain = 0
KWE2 121542Z 29004KT 25/11 A301 RMK A01 T02510109  RH  041%=      5-min Rain = 0
KWE2 121543Z 28004KT 25/11 A301 RMK A01 T02530108  RH  040%=      5-min Rain = 0
KWE2 121544Z 30003KT 25/11 A301 RMK A01 T02520108  RH  040%=      5-min Rain = 0
KWE2 121545Z 31004KT 25/11 A301 RMK A01 T02520109  RH  041%=      5-min Rain = 0
KWE2 121546Z 30003KT 25/11 A301 RMK A01 T02510108  RH  040%=      5-min Rain = 0
KWE2 121547Z 29002KT 25/11 A301 RMK A01 T02500109  RH  041%=      5-min Rain = 0
KWE2 121548Z 29003KT 25/11 A301 RMK A01 T02510108  RH  041%=      5-min Rain = 0
KWE2 121549Z 27004KT 25/11 A301 RMK A01 T02520110  RH  041%=      5-min Rain = 0
KWE2 121550Z 27004KT 25/11 A301 RMK A01 T02520111  RH  041%=      5-min Rain = 0
KWE2 121551Z 27003KT 25/11 A301 RMK A01 T02530109  RH  040%=      5-min Rain = 0
KWE2 121552Z 25004KT 25/11 A301 RMK A01 T02530110  RH  041%=      5-min Rain = 0
KWE2 121553Z 26003KT 25/11 A301 RMK A01 T02530110  RH  041%=      5-min Rain = 0
KWE2 121554Z 28004KT 25/11 A301 RMK A01 T02530114  RH  042%=      5-min Rain = 0
KWE2 121555Z 27004KT 26/11 A301 RMK A01 T02550113  RH  041%=      5-min Rain = 0
KWE2 121556Z 27003KT 25/11 A301 RMK A01 T02540114  RH  042%=      5-min Rain = 0
KWE2 121557Z 28003KT 25/11 A301 RMK A01 T02530114  RH  042%=      5-min Rain = 0
KWE2 121558Z 25003KT 25/12 A301 RMK A01 T02520115  RH  042%=      5-min Rain = 0
KWE2 121559Z 24002KT 25/11 A301 RMK A01 T02530113  RH  041%=      5-min Rain = 0
KWE2 121600Z 24003KT 25/11 A301 RMK A01 T02530114  RH  042%=      5-min Rain = 0
KWE2 121601Z 23001KT 25/11 A301 RMK A01 T02530114  RH  042%=      5-min Rain = 0
KWE2 121602Z 30002KT 25/12 A301 RMK A01 T02540115  RH  042%=      5-min Rain = 0
KWE2 121603Z 31004KT 26/11 A301 RMK A01 T02570113  RH  040%=      5-min Rain = 0
KWE2 121604Z 29002KT 26/11 A301 RMK A01 T02580113  RH  040%=      5-min Rain = 0
KWE2 121605Z 27000KT 26/11 A301 RMK A01 T02590114  RH  040%=      5-min Rain = 0
KWE2 121606Z 32002KT 26/11 A301 RMK A01 T02610114  RH  040%=      5-min Rain = 0
KWE2 121607Z 30004KT 26/11 A301 RMK A01 T02620110  RH  039%=      5-min Rain = 0
KWE2 121608Z 32003KT 26/11 A301 RMK A01 T02620112  RH  039%=      5-min Rain = 0
KWE2 121609Z 33003KT 26/11 A301 RMK A01 T02620112  RH  039%=      5-min Rain = 0
KWE2 121610Z 32003KT 26/11 A301 RMK A01 T02630111  RH  039%=      5-min Rain = 0
KWE2 121611Z 35002KT 26/11 A301 RMK A01 T02630110  RH  038%=      5-min Rain = 0
KWE2 121612Z 33003KT 26/11 A301 RMK A01 T02630110  RH  038%=      5-min Rain = 0
KWE2 121613Z 33004KT 26/11 A301 RMK A01 T02640110  RH  038%=      5-min Rain = 0
KWE2 121614Z 32005KT 26/11 A301 RMK A01 T02630109  RH  038%=      5-min Rain = 0
KWE2 121615Z 29003KT 26/11 A301 RMK A01 T02640110  RH  038%=      5-min Rain = 0
KWE2 121616Z 29002KT 26/11 A301 RMK A01 T02630111  RH  038%=      5-min Rain = 0
KWE2 121617Z 29002KT 26/11 A301 RMK A01 T02630112  RH  039%=      5-min Rain = 0
KWE2 121618Z 29000KT 26/11 A301 RMK A01 T02640111  RH  038%=      5-min Rain = 0
KWE2 121619Z 33003KT 27/11 A301 RMK A01 T02660112  RH  038%=      5-min Rain = 0
KWE2 121620Z 33004KT 27/11 A301 RMK A01 T02670112  RH  038%=      5-min Rain = 0
KWE2 121621Z 34002KT 27/11 A301 RMK A01 T02680111  RH  037%=      5-min Rain = 0
KWE2 121622Z 33004KT 27/11 A301 RMK A01 T02670110  RH  037%=      5-min Rain = 0
KWE2 121623Z 31004KT 27/11 A301 RMK A01 T02670113  RH  038%=      5-min Rain = 0
KWE2 121624Z 33003KT 27/11 A301 RMK A01 T02670112  RH  038%=      5-min Rain = 0
KWE2 121625Z 34002KT 27/11 A301 RMK A01 T02660112  RH  038%=      5-min Rain = 0
KWE2 121626Z 32002KT 27/11 A301 RMK A01 T02670113  RH  038%=      5-min Rain = 0
KWE2 121627Z 32004KT 27/11 A301 RMK A01 T02690113  RH  038%=      5-min Rain = 0
KWE2 121628Z 29003KT 27/11 A301 RMK A01 T02690110  RH  037%=      5-min Rain = 0
KWE2 121629Z 28003KT 27/11 A301 RMK A01 T02690111  RH  037%=      5-min Rain = 0
KWE2 121630Z 30003KT 27/11 A301 RMK A01 T02690111  RH  037%=      5-min Rain = 0
KWE2 121631Z 30004KT 27/11 A301 RMK A01 T02700114  RH  038%=      5-min Rain = 0
KWE2 121632Z 31004KT 27/11 A301 RMK A01 T02700113  RH  037%=      5-min Rain = 0
KWE2 121633Z 29002KT 27/11 A301 RMK A01 T02700112  RH  037%=      5-min Rain = 0
KWE2 121634Z 29001KT 27/11 A301 RMK A01 T02710111  RH  037%=      5-min Rain = 0
KWE2 121635Z 30004KT 27/11 A301 RMK A01 T02720113  RH  037%=      5-min Rain = 0
KWE2 121636Z 30003KT 27/11 A301 RMK A01 T02720114  RH  037%=      5-min Rain = 0
KWE2 121637Z 30002KT 27/11 A301 RMK A01 T02730113  RH  037%=      5-min Rain = 0
KWE2 121638Z 27001KT 27/11 A301 RMK A01 T02720114  RH  037%=      5-min Rain = 0
KWE2 121639Z 28001KT 27/11 A301 RMK A01 T02730114  RH  037%=      5-min Rain = 0
KWE2 121640Z 26000KT 28/11 A301 RMK A01 T02750113  RH  037%=      5-min Rain = 0
KWE2 121641Z 27001KT 28/11 A3009 RMK A01 T02770114  RH  036%=      5-min Rain = 0
KWE2 121642Z 21001KT 28/11 A3009 RMK A01 T02800111  RH  035%=      5-min Rain = 0
KWE2 121643Z 27002KT 28/11 A3009 RMK A01 T02790113  RH  036%=      5-min Rain = 0
KWE2 121644Z 31003KT 28/11 A3009 RMK A01 T02800112  RH  035%=      5-min Rain = 0
KWE2 121645Z 30003KT 28/11 A3009 RMK A01 T02800111  RH  035%=      5-min Rain = 0
KWE2 121646Z 27003KT 28/11 A3009 RMK A01 T02800111  RH  035%=      5-min Rain = 0
KWE2 121647Z 30004KT 28/11 A3009 RMK A01 T02820108  RH  034%=      5-min Rain = 0
KWE2 121648Z 30004KT 28/11 A3009 RMK A01 T02830107  RH  033%=      5-min Rain = 0
KWE2 121649Z 32004KT 28/11 A3009 RMK A01 T02820107  RH  033%=      5-min Rain = 0
KWE2 121650Z 29005KT 28/11 A3009 RMK A01 T02830108  RH  034%=      5-min Rain = 0
KWE2 121651Z 28003KT 28/11 A3009 RMK A01 T02840108  RH  033%=      5-min Rain = 0
KWE2 121652Z 31003KT 29/11 A3009 RMK A01 T02860105  RH  032%=      5-min Rain = 0
KWE2 121653Z 30005KT 29/11 A3009 RMK A01 T02860106  RH  033%=      5-min Rain = 0
KWE2 121654Z 29004KT 29/11 A3009 RMK A01 T02860107  RH  033%=      5-min Rain = 0
KWE2 121655Z 29004KT 29/11 A3009 RMK A01 T02860106  RH  033%=      5-min Rain = 0
KWE2 121656Z 30006KT 28/11 A3009 RMK A01 T02840107  RH  033%=      5-min Rain = 0
KWE2 121657Z 28005KT 28/11 A3009 RMK A01 T02840105  RH  033%=      5-min Rain = 0
KWE2 121658Z 26003KT 28/10 A3009 RMK A01 T02840103  RH  032%=      5-min Rain = 0
KWE2 121659Z 30003KT 29/10 A3009 RMK A01 T02850104  RH  032%=      5-min Rain = 0
KWE2 121700Z 31004KT 29/11 A3009 RMK A01 T02860106  RH  033%=      5-min Rain = 0
KWE2 121701Z 32001KT 29/10 A3009 RMK A01 T02850104  RH  032%=      5-min Rain = 0
KWE2 121702Z 02001KT 28/10 A3009 RMK A01 T02840103  RH  032%=      5-min Rain = 0
KWE2 121703Z 35004KT 29/11 A3009 RMK A01 T02850105  RH  033%=      5-min Rain = 0
KWE2 121704Z 34005KT 29/11 A3009 RMK A01 T02860105  RH  033%=      5-min Rain = 0
KWE2 121705Z 32006KT 29/11 A3009 RMK A01 T02870107  RH  033%=      5-min Rain = 0
KWE2 121706Z 32005KT 29/11 A3009 RMK A01 T02870105  RH  032%=      5-min Rain = 0
KWE2 121707Z 32004KT 29/11 A3009 RMK A01 T02860105  RH  032%=      5-min Rain = 0
KWE2 121708Z 32005KT 29/11 A3009 RMK A01 T02860107  RH  033%=      5-min Rain = 0
KWE2 121709Z 32003KT 29/11 A3009 RMK A01 T02860106  RH  033%=      5-min Rain = 0
KWE2 121710Z 36004KT 28/10 A3009 RMK A01 T02840104  RH  033%=      5-min Rain = 0
KWE2 121711Z 34003KT 28/10 A3009 RMK A01 T02830104  RH  033%=      5-min Rain = 0
KWE2 121712Z 30003KT 28/10 A3009 RMK A01 T02830104  RH  033%=      5-min Rain = 0
KWE2 121713Z 27005KT 28/10 A3008 RMK A01 T02840102  RH  032%=      5-min Rain = 0
KWE2 121714Z 29003KT 29/10 A3008 RMK A01 T02860102  RH  032%=      5-min Rain = 0
KWE2 121715Z 28005KT 29/11 A3008 RMK A01 T02870105  RH  032%=      5-min Rain = 0
KWE2 121716Z 28006KT 29/11 A3008 RMK A01 T02890107  RH  032%=      5-min Rain = 0
KWE2 121717Z 28005KT 29/11 A3008 RMK A01 T02910106  RH  032%=      5-min Rain = 0
KWE2 121718Z 29004KT 29/11 A3008 RMK A01 T02910105  RH  032%=      5-min Rain = 0
KWE2 121719Z 28002KT 29/11 A3008 RMK A01 T02900105  RH  032%=      5-min Rain = 0
KWE2 121720Z 30001KT 29/10 A3008 RMK A01 T02900103  RH  031%=      5-min Rain = 0
KWE2 121721Z 27002KT 29/11 A3008 RMK A01 T02900105  RH  032%=      5-min Rain = 0
KWE2 121722Z 18001KT 29/10 A3008 RMK A01 T02910102  RH  031%=      5-min Rain = 0
KWE2 121723Z 20001KT 29/10 A3008 RMK A01 T02910103  RH  031%=      5-min Rain = 0
KWE2 121724Z 19001KT 29/10 A3008 RMK A01 T02920101  RH  030%=      5-min Rain = 0
KWE2 121725Z 26002KT 29/10 A3008 RMK A01 T02920102  RH  031%=      5-min Rain = 0
KWE2 121726Z 24003KT 29/10 A3008 RMK A01 T02920101  RH  031%=      5-min Rain = 0
KWE2 121727Z 27002KT 29/10 A3008 RMK A01 T02930099  RH  030%=      5-min Rain = 0
KWE2 121728Z 29005KT 29/11 A3008 RMK A01 T02930105  RH  031%=      5-min Rain = 0
KWE2 121729Z 28003KT 29/10 A3008 RMK A01 T02930104  RH  031%=      5-min Rain = 0
KWE2 121730Z 30005KT 29/10 A3008 RMK A01 T02920104  RH  031%=      5-min Rain = 0
KWE2 121731Z 30006KT 29/10 A3008 RMK A01 T02920103  RH  031%=      5-min Rain = 0
KWE2 121732Z 31005KT 29/10 A3008 RMK A01 T02930100  RH  030%=      5-min Rain = 0
KWE2 121733Z 31001KT 29/10 A3008 RMK A01 T02920100  RH  030%=      5-min Rain = 0
KWE2 121734Z 06001KT 29/10 A3008 RMK A01 T02920102  RH  031%=      5-min Rain = 0
KWE2 121735Z 27001G6KT 29/10 A3008 RMK A01 T02920102  RH  031%=      5-min Rain = 0
KWE2 121736Z 31005KT 30/11 A3008 RMK A01 T02950106  RH  031%=      5-min Rain = 0
KWE2 121737Z 32005KT 30/11 A3008 RMK A01 T02970105  RH  030%=      5-min Rain = 0
KWE2 121738Z 32003KT 30/10 A3008 RMK A01 T02960102  RH  030%=      5-min Rain = 0
KWE2 121739Z 30002KT 29/10 A3008 RMK A01 T02940101  RH  030%=      5-min Rain = 0
KWE2 121740Z 25003KT 29/10 A3008 RMK A01 T02930104  RH  031%=      5-min Rain = 0
KWE2 121741Z 26004KT 29/10 A3007 RMK A01 T02930104  RH  031%=      5-min Rain = 0
KWE2 121742Z 26006KT 29/11 A3007 RMK A01 T02940105  RH  031%=      5-min Rain = 0
KWE2 121743Z 23003KT 30/10 A3007 RMK A01 T02950104  RH  030%=      5-min Rain = 0
KWE2 121744Z 20003KT 30/10 A3007 RMK A01 T02950103  RH  030%=      5-min Rain = 0
KWE2 121745Z 22003KT 30/10 A3007 RMK A01 T02960103  RH  030%=      5-min Rain = 0
KWE2 121746Z 24002KT 30/10 A3007 RMK A01 T02960104  RH  030%=      5-min Rain = 0
KWE2 121747Z 22002KT 30/11 A3007 RMK A01 T02970106  RH  031%=      5-min Rain = 0
KWE2 121748Z 23002KT 30/11 A3007 RMK A01 T02990107  RH  030%=      5-min Rain = 0
KWE2 121749Z 21002KT 30/11 A3007 RMK A01 T03020107  RH  030%=      5-min Rain = 0
KWE2 121750Z 20003KT 30/11 A3007 RMK A01 T03020106  RH  030%=      5-min Rain = 0
KWE2 121751Z 26003KT 30/11 A3007 RMK A01 T03020107  RH  030%=      5-min Rain = 0
KWE2 121752Z 26004KT 30/11 A3007 RMK A01 T03010106  RH  030%=      5-min Rain = 0
KWE2 121753Z 30004KT 30/11 A3007 RMK A01 T03010107  RH  030%=      5-min Rain = 0
KWE2 121754Z 30007KT 30/11 A3007 RMK A01 T03040106  RH  030%=      5-min Rain = 0
KWE2 121755Z 31004KT 30/11 A3007 RMK A01 T03040107  RH  030%=      5-min Rain = 0
KWE2 121756Z 32006KT 30/11 A3007 RMK A01 T03040105  RH  029%=      5-min Rain = 0
KWE2 121757Z 30006KT 30/10 A3007 RMK A01 T03020103  RH  029%=      5-min Rain = 0
KWE2 121758Z 30004KT 30/10 A3007 RMK A01 T03000104  RH  030%=      5-min Rain = 0
KWE2 121759Z 32003KT 30/11 A3007 RMK A01 T03000105  RH  030%=      5-min Rain = 0
KWE2 121800Z 35006KT 30/11 A3006 RMK A01 T03010106  RH  030%=      5-min Rain = 0
KWE2 121801Z 35007KT 30/11 A3006 RMK A01 T03040106  RH  030%=      5-min Rain = 0
KWE2 121802Z 33007KT 31/11 A3006 RMK A01 T03050106  RH  029%=      5-min Rain = 0
KWE2 121803Z 30007KT 31/11 A3006 RMK A01 T03080108  RH  029%=      5-min Rain = 0
KWE2 121804Z 31005KT 31/11 A3006 RMK A01 T03080107  RH  029%=      5-min Rain = 0
KWE2 121805Z 31002KT 31/11 A3006 RMK A01 T03070105  RH  029%=      5-min Rain = 0
KWE2 121806Z 32002KT 31/10 A3006 RMK A01 T03050104  RH  029%=      5-min Rain = 0
KWE2 121807Z 32000KT 30/10 A3006 RMK A01 T03040104  RH  029%=      5-min Rain = 0
KWE2 121808Z 35002KT 30/10 A3006 RMK A01 T03040104  RH  029%=      5-min Rain = 0
KWE2 121809Z 35004KT 31/11 A3006 RMK A01 T03050106  RH  029%=      5-min Rain = 0
KWE2 121810Z 01004KT 31/11 A3006 RMK A01 T03050106  RH  029%=      5-min Rain = 0
KWE2 121811Z 03004KT 30/11 A3006 RMK A01 T03040106  RH  029%=      5-min Rain = 0
KWE2 121812Z 25003KT 30/11 A3006 RMK A01 T03040107  RH  030%=      5-min Rain = 0
KWE2 121813Z 26005KT 31/11 A3006 RMK A01 T03070112  RH  030%=      5-min Rain = 0
KWE2 121814Z 28008KT 31/11 A3006 RMK A01 T03130111  RH  029%=      5-min Rain = 0
KWE2 121815Z 28006KT 31/11 A3006 RMK A01 T03130109  RH  029%=      5-min Rain = 0
KWE2 121816Z 29005KT 31/11 A3006 RMK A01 T03100108  RH  029%=      5-min Rain = 0
KWE2 121817Z 33003KT 31/11 A3006 RMK A01 T03090107  RH  029%=      5-min Rain = 0
KWE2 121818Z 32001KT 31/11 A3006 RMK A01 T03070106  RH  029%=      5-min Rain = 0
KWE2 121819Z 26003KT 31/11 A3006 RMK A01 T03070107  RH  029%=      5-min Rain = 0
KWE2 121820Z 26004KT 31/11 A3005 RMK A01 T03090108  RH  029%=      5-min Rain = 0
KWE2 121821Z 33004KT 31/11 A3005 RMK A01 T03110109  RH  029%=      5-min Rain = 0
KWE2 121822Z 33004KT 31/11 A3005 RMK A01 T03110105  RH  028%=      5-min Rain = 0
KWE2 121823Z 35007KT 31/10 A3005 RMK A01 T03110104  RH  028%=      5-min Rain = 0
KWE2 121824Z 35006KT 31/10 A3005 RMK A01 T03110103  RH  028%=      5-min Rain = 0
KWE2 121825Z 33004KT 31/10 A3005 RMK A01 T03100104  RH  028%=      5-min Rain = 0
KWE2 121826Z 31005KT 31/10 A3005 RMK A01 T03110104  RH  028%=      5-min Rain = 0
KWE2 121827Z 32006KT 31/10 A3005 RMK A01 T03120104  RH  028%=      5-min Rain = 0
KWE2 121828Z 30004KT 31/10 A3005 RMK A01 T03120103  RH  028%=      5-min Rain = 0
KWE2 121829Z 26002KT 31/10 A3005 RMK A01 T03110102  RH  027%=      5-min Rain = 0
KWE2 121830Z 27001KT 31/10 A3005 RMK A01 T03100102  RH  028%=      5-min Rain = 0
KWE2 121831Z 02000KT 31/10 A3005 RMK A01 T03120103  RH  028%=      5-min Rain = 0
KWE2 121832Z 28002KT 31/11 A3005 RMK A01 T03140105  RH  028%=      5-min Rain = 0
KWE2 121833Z 31005KT 32/11 A3005 RMK A01 T03170107  RH  027%=      5-min Rain = 0
KWE2 121834Z 27008KT 32/11 A3005 RMK A01 T03170108  RH  028%=      5-min Rain = 0
KWE2 121835Z 31007KT 32/11 A3005 RMK A01 T03190109  RH  028%=      5-min Rain = 0
KWE2 121836Z 35005KT 32/10 A3005 RMK A01 T03200104  RH  026%=      5-min Rain = 0
KWE2 121837Z 34001KT 32/10 A3004 RMK A01 T03180102  RH  027%=      5-min Rain = 0
KWE2 121838Z 24004KT 32/11 A3004 RMK A01 T03170106  RH  027%=      5-min Rain = 0
KWE2 121839Z 23002KT 32/10 A3004 RMK A01 T03190104  RH  027%=      5-min Rain = 0
KWE2 121840Z 25002KT 32/10 A3004 RMK A01 T03180104  RH  027%=      5-min Rain = 0
KWE2 121841Z 31006KT 32/11 A3004 RMK A01 T03210109  RH  027%=      5-min Rain = 0
KWE2 121842Z 34004KT 32/11 A3004 RMK A01 T03220105  RH  026%=      5-min Rain = 0
KWE2 121843Z 36004KT 32/10 A3004 RMK A01 T03190100  RH  026%=      5-min Rain = 0
KWE2 121844Z 32005KT 32/10 A3004 RMK A01 T03200104  RH  026%=      5-min Rain = 0
KWE2 121845Z 33005KT 32/10 A3004 RMK A01 T03230103  RH  026%=      5-min Rain = 0
KWE2 121846Z 29005KT 32/10 A3004 RMK A01 T03190102  RH  026%=      5-min Rain = 0
KWE2 121847Z 28004KT 32/10 A3004 RMK A01 T03180101  RH  026%=      5-min Rain = 0
KWE2 121848Z 30008KT 32/10 A3004 RMK A01 T03180103  RH  027%=      5-min Rain = 0
KWE2 121849Z 28007KT 32/11 A3004 RMK A01 T03200105  RH  027%=      5-min Rain = 0
KWE2 121850Z 30006KT 32/10 A3004 RMK A01 T03240103  RH  026%=      5-min Rain = 0
KWE2 121851Z 28005KT 32/10 A3004 RMK A01 T03230103  RH  026%=      5-min Rain = 0
KWE2 121852Z 27003KT 32/10 A3004 RMK A01 T03220102  RH  026%=      5-min Rain = 0
KWE2 121853Z 27005KT 32/10 A3004 RMK A01 T03210103  RH  026%=      5-min Rain = 0
KWE2 121854Z 28002KT 32/10 A3004 RMK A01 T03210102  RH  026%=      5-min Rain = 0
KWE2 121855Z 31005KT 32/10 A3004 RMK A01 T03210104  RH  026%=      5-min Rain = 0
KWE2 121856Z 33006KT 32/10 A3003 RMK A01 T03220103  RH  026%=      5-min Rain = 0
KWE2 121857Z 34008KT 32/10 A3003 RMK A01 T03230101  RH  026%=      5-min Rain = 0
KWE2 121858Z 35004KT 32/10 A3003 RMK A01 T03200099  RH  026%=      5-min Rain = 0
KWE2 121859Z 34002KT 32/10 A3003 RMK A01 T03180097  RH  026%=      5-min Rain = 0
KWE2 121900Z 36002KT 32/10 A3003 RMK A01 T03180100  RH  026%=      5-min Rain = 0
KWE2 121901Z 34002KT 32/10 A3003 RMK A01 T03200100  RH  026%=      5-min Rain = 0
KWE2 121902Z 28001KT 32/10 A3003 RMK A01 T03210099  RH  026%=      5-min Rain = 0
KWE2 121903Z 36001KT 32/10 A3003 RMK A01 T03210099  RH  025%=      5-min Rain = 0
KWE2 121904Z 03001KT 32/10 A3003 RMK A01 T03210099  RH  026%=      5-min Rain = 0
KWE2 121905Z 31004KT 32/10 A3003 RMK A01 T03220103  RH  026%=      5-min Rain = 0
KWE2 121906Z 01006KT 32/10 A3003 RMK A01 T03240102  RH  025%=      5-min Rain = 0
KWE2 121907Z 00006KT 32/10 A3003 RMK A01 T03230098  RH  025%=      5-min Rain = 0
KWE2 121908Z 36006KT 32/10 A3003 RMK A01 T03210098  RH  025%=      5-min Rain = 0
KWE2 121909Z 01007KT 32/10 A3003 RMK A01 T03200097  RH  025%=      5-min Rain = 0
KWE2 121910Z 35007KT 32/10 A3003 RMK A01 T03190100  RH  026%=      5-min Rain = 0
KWE2 121911Z 01008KT 32/10 A3002 RMK A01 T03220101  RH  026%=      5-min Rain = 0
KWE2 121912Z 00006KT 33/10 A3003 RMK A01 T03270103  RH  025%=      5-min Rain = 0
KWE2 121913Z 02005KT 33/10 A3002 RMK A01 T03290102  RH  025%=      5-min Rain = 0
KWE2 121914Z 04004KT 33/10 A3002 RMK A01 T03260097  RH  024%=      5-min Rain = 0
KWE2 121915Z 05006KT 32/10 A3002 RMK A01 T03230097  RH  025%=      5-min Rain = 0
KWE2 121916Z 03003KT 32/10 A3002 RMK A01 T03230098  RH  025%=      5-min Rain = 0
KWE2 121917Z 33007KT 33/10 A3002 RMK A01 T03250099  RH  025%=      5-min Rain = 0
KWE2 121918Z 34009KT 33/10 A3002 RMK A01 T03280099  RH  025%=      5-min Rain = 0
KWE2 121919Z 36008KT 33/10 A3002 RMK A01 T03280097  RH  024%=      5-min Rain = 0
KWE2 121920Z 36005KT 33/10 A3002 RMK A01 T03280098  RH  024%=      5-min Rain = 0
KWE2 121921Z 00005KT 33/10 A3002 RMK A01 T03270098  RH  024%=      5-min Rain = 0
KWE2 121922Z 33006KT 33/10 A3002 RMK A01 T03250097  RH  025%=      5-min Rain = 0
KWE2 121923Z 32006KT 32/10 A3002 RMK A01 T03230099  RH  025%=      5-min Rain = 0
KWE2 121924Z 31005KT 32/10 A3002 RMK A01 T03210098  RH  025%=      5-min Rain = 0
KWE2 121925Z 29005G10KT 32/10 A3002 RMK A01 T03200098  RH  025%=      5-min Rain = 0
KWE2 121926Z 27004KT 32/10 A3002 RMK A01 T03190099  RH  026%=      5-min Rain = 0
KWE2 121927Z 32004G9KT 32/10 A3002 RMK A01 T03200099  RH  026%=      5-min Rain = 0
KWE2 121928Z 00008KT 32/10 A3002 RMK A01 T03220098  RH  025%=      5-min Rain = 0
KWE2 121929Z 02003KT 32/10 A3002 RMK A01 T03220095  RH  025%=      5-min Rain = 0
KWE2 121930Z 09002KT 32/10 A3001 RMK A01 T03210096  RH  025%=      5-min Rain = 0
KWE2 121931Z 08003KT 32/10 A3001 RMK A01 T03200097  RH  025%=      5-min Rain = 0
KWE2 121932Z 04005KT 32/10 A3001 RMK A01 T03200098  RH  025%=      5-min Rain = 0
KWE2 121933Z 03005KT 32/10 A3001 RMK A01 T03240100  RH  025%=      5-min Rain = 0
KWE2 121934Z 02004KT 33/10 A3001 RMK A01 T03270100  RH  025%=      5-min Rain = 0
KWE2 121935Z 02003KT 33/10 A3001 RMK A01 T03280100  RH  025%=      5-min Rain = 0
KWE2 121936Z 02005KT 33/10 A3001 RMK A01 T03280097  RH  024%=      5-min Rain = 0
KWE2 121937Z 01003KT 33/10 A3001 RMK A01 T03250096  RH  024%=      5-min Rain = 0
KWE2 121938Z 34007KT 32/10 A3001 RMK A01 T03230098  RH  025%=      5-min Rain = 0
KWE2 121939Z 32009KT 33/10 A3001 RMK A01 T03260099  RH  025%=      5-min Rain = 0
KWE2 121940Z 33009KT 33/10 A3001 RMK A01 T03280098  RH  024%=      5-min Rain = 0
KWE2 121941Z 33006KT 33/10 A3001 RMK A01 T03270097  RH  024%=      5-min Rain = 0
KWE2 121942Z 35003KT 33/10 A3001 RMK A01 T03260096  RH  024%=      5-min Rain = 0
KWE2 121943Z 01003KT 33/10 A3001 RMK A01 T03250097  RH  025%=      5-min Rain = 0
KWE2 121944Z 00003KT 33/10 A3001 RMK A01 T03260097  RH  024%=      5-min Rain = 0
KWE2 121945Z 29003KT 33/10 A3001 RMK A01 T03270097  RH  024%=      5-min Rain = 0
KWE2 121946Z 26005KT 33/10 A3001 RMK A01 T03270099  RH  025%=      5-min Rain = 0
KWE2 121947Z 25004KT 33/10 A30 RMK A01 T03270098  RH  024%=      5-min Rain = 0
KWE2 121948Z 28002KT 33/10 A30 RMK A01 T03260097  RH  024%=      5-min Rain = 0
KWE2 121949Z 29002KT 33/10 A30 RMK A01 T03250096  RH  024%=      5-min Rain = 0
KWE2 121950Z 26002KT 33/10 A30 RMK A01 T03260097  RH  024%=      5-min Rain = 0
KWE2 121951Z 20001KT 33/10 A30 RMK A01 T03260098  RH  025%=      5-min Rain = 0
KWE2 121952Z 03001KT 33/10 A30 RMK A01 T03280098  RH  024%=      5-min Rain = 0
KWE2 121953Z 33000KT 33/10 A30 RMK A01 T03290098  RH  024%=      5-min Rain = 0
KWE2 121954Z 35002KT 33/10 A30 RMK A01 T03310099  RH  024%=      5-min Rain = 0
KWE2 121955Z 32006KT 34/10 A30 RMK A01 T03350100  RH  024%=      5-min Rain = 0
KWE2 121956Z 33004KT 34/10 A30 RMK A01 T03380098  RH  023%=      5-min Rain = 0
KWE2 121957Z 34007KT 34/10 A30 RMK A01 T03380096  RH  023%=      5-min Rain = 0
KWE2 121958Z 36007KT 34/10 A30 RMK A01 T03370097  RH  023%=      5-min Rain = 0
KWE2 121959Z 02004KT 34/09 A30 RMK A01 T03350094  RH  023%=      5-min Rain = 0
KWE2 122000Z 01005KT 33/10 A30 RMK A01 T03320095  RH  023%=      5-min Rain = 0
KWE2 122001Z 02003KT 33/09 A30 RMK A01 T03310093  RH  023%=      5-min Rain = 0
KWE2 122002Z 33003KT 33/09 A30 RMK A01 T03290093  RH  023%=      5-min Rain = 0
KWE2 122003Z 30005KT 33/10 A2999 RMK A01 T03300095  RH  024%=      5-min Rain = 0
KWE2 122004Z 34004KT 33/10 A2999 RMK A01 T03320096  RH  024%=      5-min Rain = 0
KWE2 122005Z 33005KT 34/10 A2999 RMK A01 T03350097  RH  023%=      5-min Rain = 0
KWE2 122006Z 32003KT 34/10 A2999 RMK A01 T03360095  RH  023%=      5-min Rain = 0
KWE2 122007Z 28001KT 34/10 A2999 RMK A01 T03360096  RH  023%=      5-min Rain = 0
KWE2 122008Z 30001KT 34/10 A2999 RMK A01 T03380095  RH  023%=      5-min Rain = 0
KWE2 122009Z 30004KT 34/10 A2999 RMK A01 T03390095  RH  022%=      5-min Rain = 0
KWE2 122010Z 30005KT 34/09 A2999 RMK A01 T03400094  RH  022%=      5-min Rain = 0
KWE2 122011Z 35007KT 34/10 A2999 RMK A01 T03380095  RH  023%=      5-min Rain = 0
KWE2 122012Z 35007KT 34/10 A2999 RMK A01 T03400096  RH  022%=      5-min Rain = 0
KWE2 122013Z 33006KT 34/10 A2999 RMK A01 T03400096  RH  022%=      5-min Rain = 0
KWE2 122014Z 35006KT 34/10 A2999 RMK A01 T03390097  RH  023%=      5-min Rain = 0
KWE2 122015Z 01006G11KT 34/10 A2999 RMK A01 T03400095  RH  022%=      5-min Rain = 0
KWE2 122016Z 03007KT 34/09 A2999 RMK A01 T03390092  RH  022%=      5-min Rain = 0
KWE2 122017Z 04004KT 34/09 A2999 RMK A01 T03370092  RH  022%=      5-min Rain = 0
KWE2 122018Z 07004KT 34/09 A2999 RMK A01 T03360090  RH  022%=      5-min Rain = 0
KWE2 122019Z 05004KT 33/09 A2999 RMK A01 T03340091  RH  022%=      5-min Rain = 0
KWE2 122020Z 36004KT 34/09 A2999 RMK A01 T03350092  RH  022%=      5-min Rain = 0
KWE2 122021Z 01005KT 34/09 A2999 RMK A01 T03350092  RH  022%=      5-min Rain = 0
KWE2 122022Z 01007KT 34/10 A2999 RMK A01 T03350095  RH  023%=      5-min Rain = 0
KWE2 122023Z 03007KT 34/10 A2999 RMK A01 T03360096  RH  023%=      5-min Rain = 0
KWE2 122024Z 03006KT 34/10 A2998 RMK A01 T03370096  RH  023%=      5-min Rain = 0
KWE2 122025Z 02006KT 34/10 A2998 RMK A01 T03380095  RH  023%=      5-min Rain = 0
KWE2 122026Z 07002KT 33/09 A2998 RMK A01 T03340091  RH  022%=      5-min Rain = 0
KWE2 122027Z 08004KT 33/09 A2998 RMK A01 T03320092  RH  023%=      5-min Rain = 0
KWE2 122028Z 08002KT 33/09 A2998 RMK A01 T03310092  RH  023%=      5-min Rain = 0
KWE2 122029Z 07002KT 33/09 A2998 RMK A01 T03310092  RH  023%=      5-min Rain = 0
KWE2 122030Z 29006KT 33/10 A2998 RMK A01 T03340098  RH  023%=      5-min Rain = 0
KWE2 122031Z 30007KT 34/10 A2998 RMK A01 T03390096  RH  023%=      5-min Rain = 0
KWE2 122032Z 29007KT 34/10 A2998 RMK A01 T03410095  RH  022%=      5-min Rain = 0
KWE2 122033Z 29005KT 34/09 A2998 RMK A01 T03390094  RH  022%=      5-min Rain = 0
KWE2 122034Z 27004KT 34/09 A2998 RMK A01 T03360093  RH  023%=      5-min Rain = 0
KWE2 122035Z 29002KT 34/09 A2998 RMK A01 T03350092  RH  022%=      5-min Rain = 0
KWE2 122036Z 28009KT 34/09 A2998 RMK A01 T03360094  RH  023%=      5-min Rain = 0
KWE2 122037Z 28009KT 34/09 A2998 RMK A01 T03380092  RH  022%=      5-min Rain = 0
KWE2 122038Z 30007KT 34/09 A2998 RMK A01 T03370092  RH  022%=      5-min Rain = 0
KWE2 122039Z 31004KT 34/09 A2998 RMK A01 T03360090  RH  022%=      5-min Rain = 0
KWE2 122040Z 27004KT 34/09 A2998 RMK A01 T03360091  RH  022%=      5-min Rain = 0
KWE2 122041Z 27005KT 34/09 A2998 RMK A01 T03370093  RH  022%=      5-min Rain = 0
KWE2 122042Z 25004KT 34/09 A2997 RMK A01 T03380092  RH  022%=      5-min Rain = 0
KWE2 122043Z 28003KT 34/09 A2997 RMK A01 T03380093  RH  022%=      5-min Rain = 0
KWE2 122044Z 30002KT 34/10 A2997 RMK A01 T03390095  RH  022%=      5-min Rain = 0
KWE2 122045Z 33003KT 34/09 A2997 RMK A01 T03410093  RH  022%=      5-min Rain = 0
KWE2 122046Z 32005KT 34/10 A2997 RMK A01 T03410096  RH  022%=      5-min Rain = 0
KWE2 122047Z 34007KT 34/09 A2997 RMK A01 T03410094  RH  022%=      5-min Rain = 0
KWE2 122048Z 35006KT 34/09 A2997 RMK A01 T03410093  RH  022%=      5-min Rain = 0
KWE2 122049Z 34003KT 34/09 A2997 RMK A01 T03380090  RH  022%=      5-min Rain = 0
KWE2 122050Z 09001KT 33/09 A2997 RMK A01 T03340090  RH  022%=      5-min Rain = 0
KWE2 122051Z 03002KT 34/09 A2997 RMK A01 T03350092  RH  022%=      5-min Rain = 0
KWE2 122052Z 01003KT 34/09 A2997 RMK A01 T03370093  RH  022%=      5-min Rain = 0
KWE2 122053Z 00005KT 34/09 A2997 RMK A01 T03390093  RH  022%=      5-min Rain = 0
KWE2 122054Z 02005KT 34/09 A2997 RMK A01 T03390092  RH  022%=      5-min Rain = 0
KWE2 122055Z 03003KT 34/09 A2997 RMK A01 T03360091  RH  022%=      5-min Rain = 0
KWE2 122056Z 05004KT 34/09 A2997 RMK A01 T03350091  RH  022%=      5-min Rain = 0
KWE2 122057Z 02004KT 34/09 A2997 RMK A01 T03370092  RH  022%=      5-min Rain = 0
KWE2 122058Z 03005KT 34/09 A2997 RMK A01 T03370092  RH  022%=      5-min Rain = 0
KWE2 122059Z 04006KT 34/09 A2997 RMK A01 T03360092  RH  022%=      5-min Rain = 0
KWE2 122100Z 35007KT 34/09 A2997 RMK A01 T03350094  RH  023%=      5-min Rain = 0
KWE2 122101Z 31007KT 34/09 A2997 RMK A01 T03380094  RH  022%=      5-min Rain = 0
KWE2 122102Z 30006KT 34/09 A2997 RMK A01 T03390091  RH  022%=      5-min Rain = 0
KWE2 122103Z 30006KT 34/09 A2997 RMK A01 T03380091  RH  022%=      5-min Rain = 0
KWE2 122104Z 33006KT 34/09 A2997 RMK A01 T03390094  RH  022%=      5-min Rain = 0
KWE2 122105Z 32008KT 34/09 A2997 RMK A01 T03420091  RH  022%=      5-min Rain = 0
KWE2 122106Z 32006KT 34/09 A2997 RMK A01 T03410090  RH  022%=      5-min Rain = 0
KWE2 122107Z 32005KT 34/09 A2996 RMK A01 T03390091  RH  022%=      5-min Rain = 0
KWE2 122108Z 32003KT 34/09 A2996 RMK A01 T03390090  RH  022%=      5-min Rain = 0
KWE2 122109Z 36005KT 34/09 A2996 RMK A01 T03390090  RH  022%=      5-min Rain = 0
KWE2 122110Z 03002KT 34/09 A2996 RMK A01 T03370089  RH  022%=      5-min Rain = 0
KWE2 122111Z 07002KT 34/09 A2996 RMK A01 T03350088  RH  022%=      5-min Rain = 0
KWE2 122112Z 06001KT 34/09 A2996 RMK A01 T03350088  RH  022%=      5-min Rain = 0
KWE2 122113Z 12001KT 34/09 A2996 RMK A01 T03360090  RH  022%=      5-min Rain = 0
KWE2 122114Z 01000KT 34/09 A2996 RMK A01 T03390091  RH  022%=      5-min Rain = 0
KWE2 122115Z 35005KT 34/09 A2996 RMK A01 T03410090  RH  022%=      5-min Rain = 0
KWE2 122116Z 00006KT 34/09 A2996 RMK A01 T03400089  RH  021%=      5-min Rain = 0
KWE2 122117Z 00008KT 34/09 A2996 RMK A01 T03380089  RH  022%=      5-min Rain = 0
KWE2 122118Z 01007KT 34/09 A2996 RMK A01 T03380087  RH  021%=      5-min Rain = 0
KWE2 122119Z 32008KT 34/09 A2995 RMK A01 T03380088  RH  022%=      5-min Rain = 0
KWE2 122120Z 29009KT 34/10 A2995 RMK A01 T03390095  RH  022%=      5-min Rain = 0
KWE2 122121Z 30006KT 34/10 A2996 RMK A01 T03430097  RH  022%=      5-min Rain = 0
KWE2 122122Z 31008G15KT 35/10 A2995 RMK A01 T03460095  RH  022%=      5-min Rain = 0
KWE2 122123Z 31008KT 35/09 A2996 RMK A01 T03480092  RH  021%=      5-min Rain = 0
KWE2 122124Z 30008KT 35/09 A2995 RMK A01 T03480090  RH  021%=      5-min Rain = 0
KWE2 122125Z 30007KT 35/09 A2995 RMK A01 T03470091  RH  021%=      5-min Rain = 0
KWE2 122126Z 30007KT 35/09 A2995 RMK A01 T03460090  RH  021%=      5-min Rain = 0
KWE2 122127Z 32009KT 35/09 A2995 RMK A01 T03460090  RH  021%=      5-min Rain = 0
KWE2 122128Z 31008KT 35/09 A2995 RMK A01 T03450089  RH  021%=      5-min Rain = 0
KWE2 122129Z 31006KT 34/09 A2995 RMK A01 T03430088  RH  021%=      5-min Rain = 0
KWE2 122130Z 31005KT 34/09 A2995 RMK A01 T03420089  RH  021%=      5-min Rain = 0
KWE2 122131Z 32007KT 34/09 A2995 RMK A01 T03420090  RH  021%=      5-min Rain = 0
KWE2 122132Z 35006KT 34/09 A2995 RMK A01 T03420090  RH  021%=      5-min Rain = 0
KWE2 122133Z 05004KT 34/09 A2995 RMK A01 T03410088  RH  021%=      5-min Rain = 0
KWE2 122134Z 01002KT 34/09 A2995 RMK A01 T03400086  RH  021%=      5-min Rain = 0
KWE2 122135Z 35003KT 34/09 A2995 RMK A01 T03380087  RH  021%=      5-min Rain = 0
KWE2 122136Z 34006KT 34/09 A2995 RMK A01 T03390088  RH  021%=      5-min Rain = 0
KWE2 122137Z 33004KT 34/09 A2995 RMK A01 T03400087  RH  021%=      5-min Rain = 0
KWE2 122138Z 35002KT 34/09 A2995 RMK A01 T03400086  RH  021%=      5-min Rain = 0
KWE2 122139Z 36002KT 34/09 A2995 RMK A01 T03390086  RH  021%=      5-min Rain = 0
KWE2 122140Z 30002KT 34/09 A2995 RMK A01 T03380086  RH  021%=      5-min Rain = 0
KWE2 122141Z 28004KT 34/09 A2995 RMK A01 T03410091  RH  022%=      5-min Rain = 0
KWE2 122142Z 26006KT 34/09 A2995 RMK A01 T03430092  RH  021%=      5-min Rain = 0
KWE2 122143Z 24003KT 34/09 A2995 RMK A01 T03440090  RH  021%=      5-min Rain = 0
KWE2 122144Z 26004G9KT 34/09 A2995 RMK A01 T03430090  RH  021%=      5-min Rain = 0
KWE2 122145Z 25008KT 34/09 A2994 RMK A01 T03420091  RH  021%=      5-min Rain = 0
KWE2 122146Z 26006KT 34/09 A2994 RMK A01 T03420090  RH  021%=      5-min Rain = 0
KWE2 122147Z 25006KT 34/09 A2994 RMK A01 T03420091  RH  021%=      5-min Rain = 0
KWE2 122148Z 26004KT 34/09 A2994 RMK A01 T03420090  RH  021%=      5-min Rain = 0
KWE2 122149Z 27005KT 34/09 A2994 RMK A01 T03420090  RH  021%=      5-min Rain = 0
KWE2 122150Z 27005KT 34/09 A2994 RMK A01 T03430090  RH  021%=      5-min Rain = 0
KWE2 122151Z 30007KT 34/09 A2994 RMK A01 T03430092  RH  021%=      5-min Rain = 0
KWE2 122152Z 30008KT 34/09 A2994 RMK A01 T03440089  RH  021%=      5-min Rain = 0
KWE2 122153Z 32008KT 34/09 A2994 RMK A01 T03440089  RH  021%=      5-min Rain = 0
KWE2 122154Z 30007KT 34/09 A2994 RMK A01 T03430089  RH  021%=      5-min Rain = 0
KWE2 122155Z 31007KT 34/09 A2994 RMK A01 T03440088  RH  021%=      5-min Rain = 0
KWE2 122156Z 32005KT 34/09 A2994 RMK A01 T03440087  RH  021%=      5-min Rain = 0
KWE2 122157Z 28004KT 34/09 A2994 RMK A01 T03430087  RH  021%=      5-min Rain = 0
KWE2 122158Z 29005KT 34/09 A2994 RMK A01 T03430089  RH  021%=      5-min Rain = 0
KWE2 122159Z 33003KT 35/09 A2994 RMK A01 T03450089  RH  021%=      5-min Rain = 0
KWE2 122200Z 01004KT 35/09 A2994 RMK A01 T03460089  RH  021%=      5-min Rain = 0
KWE2 122201Z 08004KT 35/09 A2994 RMK A01 T03450089  RH  021%=      5-min Rain = 0
KWE2 122202Z 08005KT 35/09 A2994 RMK A01 T03450090  RH  021%=      5-min Rain = 0
KWE2 122203Z 08004KT 34/09 A2994 RMK A01 T03420089  RH  021%=      5-min Rain = 0
KWE2 122204Z 08004KT 34/09 A2994 RMK A01 T03400088  RH  021%=      5-min Rain = 0
KWE2 122205Z 06002KT 34/09 A2994 RMK A01 T03400092  RH  022%=      5-min Rain = 0
KWE2 122206Z 03003KT 34/10 A2994 RMK A01 T03410095  RH  022%=      5-min Rain = 0
KWE2 122207Z 03009KT 35/09 A2994 RMK A01 T03450091  RH  021%=      5-min Rain = 0
KWE2 122208Z 02007KT 35/09 A2994 RMK A01 T03460088  RH  021%=      5-min Rain = 0
KWE2 122209Z 05007KT 34/09 A2994 RMK A01 T03440089  RH  021%=      5-min Rain = 0
KWE2 122210Z 04006KT 34/09 A2994 RMK A01 T03440088  RH  021%=      5-min Rain = 0
KWE2 122211Z 03004KT 34/09 A2994 RMK A01 T03420087  RH  021%=      5-min Rain = 0
KWE2 122212Z 35003KT 34/09 A2994 RMK A01 T03390086  RH  021%=      5-min Rain = 0
KWE2 122213Z 00003KT 34/09 A2994 RMK A01 T03380086  RH  021%=      5-min Rain = 0
KWE2 122214Z 01002KT 34/09 A2994 RMK A01 T03370087  RH  021%=      5-min Rain = 0
KWE2 122215Z 04004KT 34/09 A2994 RMK A01 T03390088  RH  021%=      5-min Rain = 0
KWE2 122216Z 04003KT 34/09 A2994 RMK A01 T03390088  RH  021%=      5-min Rain = 0
KWE2 122217Z 35000KT 34/09 A2994 RMK A01 T03380087  RH  021%=      5-min Rain = 0
KWE2 122218Z 06001KT 34/09 A2994 RMK A01 T03410090  RH  021%=      5-min Rain = 0
KWE2 122219Z 08004KT 34/09 A2994 RMK A01 T03430088  RH  021%=      5-min Rain = 0
KWE2 122220Z 04001KT 34/09 A2994 RMK A01 T03420089  RH  021%=      5-min Rain = 0
KWE2 122221Z 01007KT 34/09 A2994 RMK A01 T03420089  RH  021%=      5-min Rain = 0
KWE2 122222Z 00005KT 34/09 A2994 RMK A01 T03420087  RH  021%=      5-min Rain = 0
KWE2 122223Z 01003KT 34/09 A2994 RMK A01 T03410087  RH  021%=      5-min Rain = 0
KWE2 122224Z 03003KT 34/09 A2994 RMK A01 T03400086  RH  021%=      5-min Rain = 0
KWE2 122225Z 05003KT 34/09 A2994 RMK A01 T03400086  RH  021%=      5-min Rain = 0
KWE2 122226Z 09003KT 34/09 A2994 RMK A01 T03400086  RH  021%=      5-min Rain = 0
KWE2 122227Z 06003KT 34/09 A2994 RMK A01 T03420087  RH  021%=      5-min Rain = 0
KWE2 122228Z 06002KT 34/09 A2994 RMK A01 T03430086  RH  021%=      5-min Rain = 0
KWE2 122229Z 05001KT 34/09 A2994 RMK A01 T03420085  RH  021%=      5-min Rain = 0
KWE2 122230Z 11002KT 34/09 A2994 RMK A01 T03410086  RH  021%=      5-min Rain = 0
KWE2 122231Z 04003KT 34/09 A2994 RMK A01 T03410090  RH  021%=      5-min Rain = 0
KWE2 122232Z 02006KT 34/09 A2994 RMK A01 T03440091  RH  021%=      5-min Rain = 0
KWE2 122233Z 00007KT 35/09 A2994 RMK A01 T03460092  RH  021%=      5-min Rain = 0
KWE2 122234Z 35007KT 35/09 A2993 RMK A01 T03450087  RH  021%=      5-min Rain = 0
KWE2 122235Z 36004KT 34/09 A2994 RMK A01 T03430086  RH  021%=      5-min Rain = 0
KWE2 122236Z 33002KT 34/09 A2994 RMK A01 T03410085  RH  021%=      5-min Rain = 0
KWE2 122237Z 31002KT 34/09 A2994 RMK A01 T03410085  RH  021%=      5-min Rain = 0
KWE2 122238Z 31003KT 34/09 A2993 RMK A01 T03410085  RH  021%=      5-min Rain = 0
KWE2 122239Z 30002KT 34/09 A2993 RMK A01 T03410086  RH  021%=      5-min Rain = 0
KWE2 122240Z 00004KT 34/09 A2993 RMK A01 T03410087  RH  021%=      5-min Rain = 0
KWE2 122241Z 01003KT 34/09 A2993 RMK A01 T03410086  RH  021%=      5-min Rain = 0
KWE2 122242Z 01002KT 34/09 A2993 RMK A01 T03410085  RH  021%=      5-min Rain = 0
KWE2 122243Z 01003KT 34/09 A2993 RMK A01 T03410086  RH  021%=      5-min Rain = 0
KWE2 122244Z 35004KT 34/08 A2993 RMK A01 T03420084  RH  020%=      5-min Rain = 0
KWE2 122245Z 36005KT 34/08 A2993 RMK A01 T03420081  RH  020%=      5-min Rain = 0
KWE2 122246Z 04005KT 35/08 A2993 RMK A01 T03450083  RH  020%=      5-min Rain = 0
KWE2 122247Z 01004KT 35/08 A2993 RMK A01 T03460080  RH  020%=      5-min Rain = 0
KWE2 122248Z 02006KT 35/08 A2993 RMK A01 T03450081  RH  020%=      5-min Rain = 0
KWE2 122249Z 04006KT 34/08 A2993 RMK A01 T03440079  RH  019%=      5-min Rain = 0
KWE2 122250Z 03005KT 34/08 A2993 RMK A01 T03440078  RH  020%=      5-min Rain = 0
KWE2 122251Z 03004KT 34/08 A2993 RMK A01 T03430080  RH  020%=      5-min Rain = 0
KWE2 122252Z 03006KT 34/08 A2993 RMK A01 T03440080  RH  020%=      5-min Rain = 0
KWE2 122253Z 02006KT 34/08 A2993 RMK A01 T03440079  RH  020%=      5-min Rain = 0
KWE2 122254Z 02007KT 34/08 A2993 RMK A01 T03440081  RH  020%=      5-min Rain = 0
KWE2 122255Z 36007KT 34/08 A2993 RMK A01 T03440083  RH  020%=      5-min Rain = 0
KWE2 122256Z 35007KT 35/08 A2993 RMK A01 T03450080  RH  020%=      5-min Rain = 0
KWE2 122257Z 33007KT 34/08 A2993 RMK A01 T03430079  RH  020%=      5-min Rain = 0
KWE2 122258Z 33006KT 34/08 A2993 RMK A01 T03410080  RH  020%=      5-min Rain = 0
KWE2 122259Z 31005KT 34/08 A2993 RMK A01 T03400080  RH  020%=      5-min Rain = 0
KWE2 122300Z 30004KT 34/08 A2993 RMK A01 T03390081  RH  020%=      5-min Rain = 0
KWE2 122301Z 32003KT 34/08 A2993 RMK A01 T03390082  RH  021%=      5-min Rain = 0
KWE2 122302Z 04004KT 34/08 A2993 RMK A01 T03410082  RH  020%=      5-min Rain = 0
KWE2 122303Z 04004KT 34/08 A2993 RMK A01 T03420081  RH  020%=      5-min Rain = 0
KWE2 122304Z 05004KT 34/08 A2993 RMK A01 T03430080  RH  020%=      5-min Rain = 0
KWE2 122305Z 08005KT 34/08 A2993 RMK A01 T03440079  RH  020%=      5-min Rain = 0
KWE2 122306Z 10005KT 34/08 A2993 RMK A01 T03410077  RH  020%=      5-min Rain = 0
KWE2 122307Z 10006KT 34/08 A2993 RMK A01 T03390077  RH  020%=      5-min Rain = 0
KWE2 122308Z 09006KT 34/08 A2993 RMK A01 T03380077  RH  020%=      5-min Rain = 0
KWE2 122309Z 06005KT 34/08 A2993 RMK A01 T03380078  RH  020%=      5-min Rain = 0
KWE2 122310Z 08004KT 34/08 A2993 RMK A01 T03380078  RH  020%=      5-min Rain = 0
KWE2 122311Z 08004KT 34/08 A2993 RMK A01 T03370078  RH  020%=      5-min Rain = 0
KWE2 122312Z 09004KT 34/08 A2993 RMK A01 T03360077  RH  020%=      5-min Rain = 0
KWE2 122313Z 08002KT 34/08 A2993 RMK A01 T03350077  RH  020%=      5-min Rain = 0
KWE2 122314Z 09002KT 34/08 A2993 RMK A01 T03360079  RH  020%=      5-min Rain = 0
KWE2 122315Z 08003KT 34/08 A2993 RMK A01 T03350078  RH  020%=      5-min Rain = 0
KWE2 122316Z 09003KT 34/08 A2993 RMK A01 T03360077  RH  020%=      5-min Rain = 0
KWE2 122317Z 09003KT 34/08 A2993 RMK A01 T03360078  RH  020%=      5-min Rain = 0
KWE2 122318Z 08003KT 34/08 A2993 RMK A01 T03370078  RH  020%=      5-min Rain = 0
KWE2 122319Z 09002KT 34/08 A2993 RMK A01 T03360078  RH  020%=      5-min Rain = 0
KWE2 122320Z 07003KT 34/08 A2993 RMK A01 T03360078  RH  020%=      5-min Rain = 0
KWE2 122321Z 06003KT 34/08 A2993 RMK A01 T03360077  RH  020%=      5-min Rain = 0
KWE2 122322Z 06003KT 34/08 A2993 RMK A01 T03350078  RH  020%=      5-min Rain = 0
KWE2 122323Z 06004KT 34/08 A2993 RMK A01 T03350078  RH  020%=      5-min Rain = 0
KWE2 122324Z 07002KT 33/08 A2993 RMK A01 T03340078  RH  021%=      5-min Rain = 0
KWE2 122325Z 06003KT 33/08 A2993 RMK A01 T03340079  RH  021%=      5-min Rain = 0
KWE2 122326Z 06003KT 33/08 A2993 RMK A01 T03340079  RH  021%=      5-min Rain = 0
KWE2 122327Z 04003KT 33/08 A2993 RMK A01 T03340080  RH  021%=      5-min Rain = 0
KWE2 122328Z 02004KT 33/08 A2993 RMK A01 T03340080  RH  021%=      5-min Rain = 0
KWE2 122329Z 02005KT 33/08 A2993 RMK A01 T03340081  RH  021%=      5-min Rain = 0
KWE2 122330Z 02004KT 33/08 A2993 RMK A01 T03330081  RH  021%=      5-min Rain = 0
KWE2 122331Z 04003KT 33/08 A2993 RMK A01 T03330083  RH  021%=      5-min Rain = 0
KWE2 122332Z 03004KT 33/08 A2993 RMK A01 T03330084  RH  022%=      5-min Rain = 0
KWE2 122333Z 03004KT 33/08 A2992 RMK A01 T03330083  RH  021%=      5-min Rain = 0
KWE2 122334Z 01003KT 33/09 A2992 RMK A01 T03340086  RH  022%=      5-min Rain = 0
KWE2 122335Z 02003KT 33/09 A2992 RMK A01 T03330090  RH  022%=      5-min Rain = 0
KWE2 122336Z 02004KT 33/09 A2992 RMK A01 T03320087  RH  022%=      5-min Rain = 0
KWE2 122337Z 02005KT 33/09 A2992 RMK A01 T03320087  RH  022%=      5-min Rain = 0
KWE2 122338Z 02004KT 33/09 A2992 RMK A01 T03310088  RH  022%=      5-min Rain = 0
KWE2 122339Z 02005KT 33/09 A2992 RMK A01 T03310090  RH  023%=      5-min Rain = 0
KWE2 122340Z 02004KT 33/09 A2992 RMK A01 T03300089  RH  023%=      5-min Rain = 0
KWE2 122341Z 02003KT 33/09 A2992 RMK A01 T03300089  RH  023%=      5-min Rain = 0
KWE2 122342Z 01004KT 33/09 A2992 RMK A01 T03300092  RH  023%=      5-min Rain = 0
KWE2 122343Z 01005KT 33/09 A2992 RMK A01 T03290090  RH  023%=      5-min Rain = 0
KWE2 122344Z 01004KT 33/09 A2992 RMK A01 T03290092  RH  023%=      5-min Rain = 0
KWE2 122345Z 01005KT 33/09 A2992 RMK A01 T03280092  RH  023%=      5-min Rain = 0
KWE2 122346Z 01004KT 33/09 A2992 RMK A01 T03270091  RH  023%=      5-min Rain = 0
KWE2 122347Z 02004KT 33/09 A2992 RMK A01 T03280092  RH  023%=      5-min Rain = 0
KWE2 122348Z 02004KT 33/09 A2992 RMK A01 T03290092  RH  023%=      5-min Rain = 0
KWE2 122349Z 02004KT 33/09 A2992 RMK A01 T03290091  RH  023%=      5-min Rain = 0
KWE2 122350Z 02004KT 33/09 A2992 RMK A01 T03300087  RH  022%=      5-min Rain = 0
KWE2 122351Z 02004KT 33/09 A2992 RMK A01 T03300086  RH  022%=      5-min Rain = 0
KWE2 122352Z 02004KT 33/09 A2992 RMK A01 T03300086  RH  022%=      5-min Rain = 0
KWE2 122353Z 04004KT 33/09 A2992 RMK A01 T03300086  RH  022%=      5-min Rain = 0
KWE2 122354Z 03004KT 33/09 A2992 RMK A01 T03310087  RH  022%=      5-min Rain = 0
KWE2 122355Z 04004KT 33/09 A2992 RMK A01 T03310087  RH  022%=      5-min Rain = 0
KWE2 122356Z 03004KT 33/09 A2992 RMK A01 T03310088  RH  022%=      5-min Rain = 0
KWE2 122357Z 04004KT 33/09 A2992 RMK A01 T03310088  RH  022%=      5-min Rain = 0
KWE2 122358Z 04004KT 33/09 A2992 RMK A01 T03300089  RH  023%=      5-min Rain = 0
KWE2 122359Z 03004KT 33/09 A2992 RMK A01 T03300090  RH  023%=      5-min Rain = 0
KWE2 130000Z 04004KT 33/09 A2992 RMK A01 T03300089  RH  023%=      5-min Rain = 0
KWE2 130001Z 04004KT 33/09 A2992 RMK A01 T03290087  RH  022%=      5-min Rain = 0
KWE2 130002Z 04004KT 33/09 A2992 RMK A01 T03280085  RH  022%=      5-min Rain = 0
KWE2 130003Z 04004KT 33/09 A2992 RMK A01 T03280087  RH  023%=      5-min Rain = 0
KWE2 130004Z 04004KT 33/09 A2992 RMK A01 T03270087  RH  023%=      5-min Rain = 0
KWE2 130005Z 05004KT 33/09 A2992 RMK A01 T03260089  RH  023%=      5-min Rain = 0
KWE2 130006Z 05004KT 33/09 A2992 RMK A01 T03250090  RH  023%=      5-min Rain = 0
KWE2 130007Z 05004KT 32/09 A2992 RMK A01 T03240091  RH  024%=      5-min Rain = 0
KWE2 130008Z 05003KT 32/09 A2992 RMK A01 T03240094  RH  024%=      5-min Rain = 0
KWE2 130009Z 05004KT 32/10 A2992 RMK A01 T03230096  RH  025%=      5-min Rain = 0
KWE2 130010Z 06004KT 32/10 A2992 RMK A01 T03220096  RH  025%=      5-min Rain = 0
KWE2 130011Z 05003KT 32/10 A2992 RMK A01 T03210098  RH  025%=      5-min Rain = 0
KWE2 130012Z 05003KT 32/10 A2992 RMK A01 T03200098  RH  026%=      5-min Rain = 0
KWE2 130013Z 06003KT 32/10 A2992 RMK A01 T03190099  RH  026%=      5-min Rain = 0
KWE2 130014Z 06003KT 32/10 A2992 RMK A01 T03190100  RH  026%=      5-min Rain = 0
KWE2 130015Z 06002KT 32/10 A2992 RMK A01 T03180101  RH  026%=      5-min Rain = 0
KWE2 130016Z 06002KT 32/10 A2992 RMK A01 T03180103  RH  027%=      5-min Rain = 0
KWE2 130017Z 06002KT 32/10 A2992 RMK A01 T03170102  RH  027%=      5-min Rain = 0
KWE2 130018Z 06002KT 32/10 A2992 RMK A01 T03160101  RH  026%=      5-min Rain = 0
KWE2 130019Z 06003KT 32/10 A2992 RMK A01 T03160100  RH  026%=      5-min Rain = 0
KWE2 130020Z 06003KT 32/10 A2992 RMK A01 T03160101  RH  027%=      5-min Rain = 0
KWE2 130021Z 06003KT 32/10 A2992 RMK A01 T03150102  RH  027%=      5-min Rain = 0
KWE2 130022Z 06002KT 32/10 A2992 RMK A01 T03150102  RH  027%=      5-min Rain = 0
KWE2 130023Z 06003KT 32/10 A2992 RMK A01 T03150102  RH  027%=      5-min Rain = 0
KWE2 130024Z 06003KT 31/10 A2992 RMK A01 T03140102  RH  027%=      5-min Rain = 0
KWE2 130025Z 06003KT 31/10 A2992 RMK A01 T03140102  RH  027%=      5-min Rain = 0
KWE2 130026Z 06003KT 31/10 A2992 RMK A01 T03130101  RH  027%=      5-min Rain = 0
KWE2 130027Z 07003KT 31/10 A2992 RMK A01 T03130100  RH  027%=      5-min Rain = 0
KWE2 130028Z 07003KT 31/10 A2991 RMK A01 T03120099  RH  027%=      5-min Rain = 0
KWE2 130029Z 07004KT 31/10 A2991 RMK A01 T03120098  RH  027%=      5-min Rain = 0
KWE2 130030Z 07004KT 31/10 A2991 RMK A01 T03120097  RH  026%=      5-min Rain = 0
KWE2 130031Z 07004KT 31/10 A2991 RMK A01 T03120096  RH  026%=      5-min Rain = 0
KWE2 130032Z 07003KT 31/09 A2991 RMK A01 T03120094  RH  026%=      5-min Rain = 0
KWE2 130033Z 07003KT 31/09 A2991 RMK A01 T03120094  RH  026%=      5-min Rain = 0
KWE2 130034Z 07003KT 31/11 A2991 RMK A01 T03120113  RH  030%=      5-min Rain = 0
KWE2 130035Z 07003KT 31/12 A2991 RMK A01 T03090120  RH  031%=      5-min Rain = 0
KWE2 130036Z 08002KT 31/13 A2991 RMK A01 T03060130  RH  034%=      5-min Rain = 0
KWE2 130037Z 08002KT 30/13 A2991 RMK A01 T03020130  RH  035%=      5-min Rain = 0
KWE2 130038Z 08002KT 30/12 A2991 RMK A01 T02980122  RH  034%=      5-min Rain = 0
KWE2 130039Z 10002KT 30/13 A2991 RMK A01 T02950134  RH  037%=      5-min Rain = 0
KWE2 130040Z 11002KT 29/13 A2991 RMK A01 T02920128  RH  037%=      5-min Rain = 0
KWE2 130041Z 10002KT 29/13 A2991 RMK A01 T02890128  RH  037%=      5-min Rain = 0
KWE2 130042Z 10002KT 29/13 A2991 RMK A01 T02880130  RH  038%=      5-min Rain = 0
KWE2 130043Z 09002KT 29/13 A2991 RMK A01 T02870131  RH  038%=      5-min Rain = 0
KWE2 130044Z 09002KT 29/13 A2991 RMK A01 T02860128  RH  038%=      5-min Rain = 0
KWE2 130045Z 10002KT 29/13 A2991 RMK A01 T02860130  RH  038%=      5-min Rain = 0
KWE2 130046Z 10002KT 29/13 A2991 RMK A01 T02850133  RH  039%=      5-min Rain = 0
KWE2 130047Z 09002KT 28/14 A2991 RMK A01 T02840135  RH  040%=      5-min Rain = 0
KWE2 130048Z 09002KT 28/13 A2991 RMK A01 T02840134  RH  040%=      5-min Rain = 0
KWE2 130049Z 09002KT 28/14 A2991 RMK A01 T02820137  RH  041%=      5-min Rain = 0
KWE2 130050Z 09002KT 28/14 A2991 RMK A01 T02810136  RH  041%=      5-min Rain = 0
KWE2 130051Z 09002KT 28/14 A2991 RMK A01 T02800136  RH  041%=      5-min Rain = 0
KWE2 130052Z 09002KT 28/14 A2991 RMK A01 T02790136  RH  041%=      5-min Rain = 0
KWE2 130053Z 09002KT 28/14 A2991 RMK A01 T02780135  RH  041%=      5-min Rain = 0
KWE2 130054Z 10002KT 28/13 A2991 RMK A01 T02770134  RH  041%=      5-min Rain = 0
KWE2 130055Z 11002KT 28/14 A2991 RMK A01 T02770135  RH  042%=      5-min Rain = 0
KWE2 130056Z 12002KT 28/14 A2991 RMK A01 T02750135  RH  042%=      5-min Rain = 0
KWE2 130057Z 12002KT 28/14 A2991 RMK A01 T02750135  RH  042%=      5-min Rain = 0
KWE2 130058Z 12002KT 27/14 A2991 RMK A01 T02740135  RH  042%=      5-min Rain = 0
KWE2 130059Z 12002KT 27/14 A2991 RMK A01 T02730136  RH  043%=      5-min Rain = 0
KWE2 130100Z 12002KT 27/14 A2991 RMK A01 T02720136  RH  043%=      5-min Rain = 0
KWE2 130101Z 12002KT 27/13 A2991 RMK A01 T02700132  RH  043%=      5-min Rain = 0
KWE2 130102Z 12002KT 27/13 A2991 RMK A01 T02700134  RH  043%=      5-min Rain = 0
KWE2 130103Z 11002KT 27/13 A2991 RMK A01 T02690132  RH  043%=      5-min Rain = 0
KWE2 130104Z 12002KT 27/13 A2991 RMK A01 T02690126  RH  041%=      5-min Rain = 0
KWE2 130105Z 13002KT 27/13 A2992 RMK A01 T02690132  RH  043%=      5-min Rain = 0
KWE2 130106Z 14002KT 27/13 A2992 RMK A01 T02690132  RH  043%=      5-min Rain = 0
KWE2 130107Z 14002KT 27/13 A2992 RMK A01 T02680130  RH  042%=      5-min Rain = 0
KWE2 130108Z 14003KT 27/13 A2992 RMK A01 T02670131  RH  043%=      5-min Rain = 0
KWE2 130109Z 14002KT 27/13 A2992 RMK A01 T02660131  RH  043%=      5-min Rain = 0
KWE2 130110Z 14002KT 27/13 A2992 RMK A01 T02650134  RH  044%=      5-min Rain = 0
KWE2 130111Z 14002KT 26/13 A2992 RMK A01 T02640134  RH  045%=      5-min Rain = 0
KWE2 130112Z 14003KT 26/13 A2992 RMK A01 T02630133  RH  045%=      5-min Rain = 0
KWE2 130113Z 15002KT 26/13 A2992 RMK A01 T02620131  RH  044%=      5-min Rain = 0
KWE2 130114Z 15002KT 26/12 A2992 RMK A01 T02610123  RH  042%=      5-min Rain = 0
KWE2 130115Z 16002KT 26/12 A2992 RMK A01 T02620120  RH  041%=      5-min Rain = 0
KWE2 130116Z 15002KT 26/12 A2992 RMK A01 T02620122  RH  042%=      5-min Rain = 0
KWE2 130117Z 15002KT 26/13 A2992 RMK A01 T02630126  RH  043%=      5-min Rain = 0
KWE2 130118Z 14002KT 26/12 A2992 RMK A01 T02630122  RH  041%=      5-min Rain = 0
KWE2 130119Z 14002KT 26/12 A2992 RMK A01 T02630122  RH  041%=      5-min Rain = 0
KWE2 130120Z 14002KT 26/12 A2992 RMK A01 T02630123  RH  042%=      5-min Rain = 0
KWE2 130121Z 14002KT 26/12 A2992 RMK A01 T02640123  RH  042%=      5-min Rain = 0
KWE2 130122Z 14002KT 26/13 A2992 RMK A01 T02640126  RH  042%=      5-min Rain = 0
KWE2 130123Z 13002KT 26/13 A2992 RMK A01 T02640128  RH  043%=      5-min Rain = 0
KWE2 130124Z 12002KT 26/12 A2992 RMK A01 T02630123  RH  042%=      5-min Rain = 0
KWE2 130125Z 12001KT 26/12 A2992 RMK A01 T02630121  RH  041%=      5-min Rain = 0
KWE2 130126Z 12001KT 26/12 A2992 RMK A01 T02630123  RH  042%=      5-min Rain = 0
KWE2 130127Z 12001KT 26/13 A2992 RMK A01 T02620125  RH  043%=      5-min Rain = 0
KWE2 130128Z 13001KT 26/12 A2992 RMK A01 T02620120  RH  041%=      5-min Rain = 0
KWE2 130129Z 13001KT 26/12 A2992 RMK A01 T02620117  RH  040%=      5-min Rain = 0
KWE2 130130Z 14001KT 26/12 A2992 RMK A01 T02620115  RH  040%=      5-min Rain = 0
KWE2 130131Z 15001KT 26/11 A2992 RMK A01 T02630111  RH  038%=      5-min Rain = 0
KWE2 130132Z 14001KT 26/11 A2992 RMK A01 T02640111  RH  039%=      5-min Rain = 0
KWE2 130133Z 14001KT 26/12 A2992 RMK A01 T02640115  RH  039%=      5-min Rain = 0
KWE2 130134Z 14001KT 26/12 A2992 RMK A01 T02640117  RH  040%=      5-min Rain = 0
KWE2 130135Z 14001KT 26/12 A2992 RMK A01 T02640115  RH  039%=      5-min Rain = 0
KWE2 130136Z 13001KT 26/12 A2992 RMK A01 T02640116  RH  040%=      5-min Rain = 0
KWE2 130137Z 13001KT 26/12 A2992 RMK A01 T02630117  RH  040%=      5-min Rain = 0
KWE2 130138Z 13001KT 26/12 A2992 RMK A01 T02630116  RH  040%=      5-min Rain = 0
KWE2 130139Z 13001KT 26/12 A2992 RMK A01 T02620117  RH  040%=      5-min Rain = 0
KWE2 130140Z 13001KT 26/12 A2992 RMK A01 T02620118  RH  041%=      5-min Rain = 0
KWE2 130141Z 13000KT 26/12 A2992 RMK A01 T02600124  RH  043%=      5-min Rain = 0
KWE2 130142Z 00000KT 26/12 A2992 RMK A01 T02570123  RH  043%=      5-min Rain = 0
KWE2 130143Z 00000KT 25/12 A2992 RMK A01 T02530122  RH  044%=      5-min Rain = 0
KWE2 130144Z 00000KT 25/12 A2992 RMK A01 T02510123  RH  045%=      5-min Rain = 0
KWE2 130145Z 00000KT 25/12 A2992 RMK A01 T02510122  RH  045%=      5-min Rain = 0
KWE2 130146Z 00000KT 25/12 A2992 RMK A01 T02510122  RH  045%=      5-min Rain = 0
KWE2 130147Z 00000KT 25/12 A2992 RMK A01 T02510122  RH  045%=      5-min Rain = 0
KWE2 130148Z 00000KT 25/12 A2992 RMK A01 T02510121  RH  044%=      5-min Rain = 0
KWE2 130149Z 00000KT 25/12 A2992 RMK A01 T02510121  RH  044%=      5-min Rain = 0
KWE2 130150Z 00000KT 25/12 A2992 RMK A01 T02510122  RH  044%=      5-min Rain = 0
KWE2 130151Z 00000KT 25/12 A2992 RMK A01 T02510122  RH  044%=      5-min Rain = 0
KWE2 130152Z 00000KT 25/12 A2992 RMK A01 T02520123  RH  045%=      5-min Rain = 0
KWE2 130153Z 00000KT 25/12 A2992 RMK A01 T02510124  RH  045%=      5-min Rain = 0
KWE2 130154Z 13000KT 25/13 A2992 RMK A01 T02500126  RH  046%=      5-min Rain = 0
KWE2 130155Z 13000KT 25/13 A2993 RMK A01 T02490125  RH  046%=      5-min Rain = 0
KWE2 130156Z 13000KT 25/12 A2993 RMK A01 T02490122  RH  045%=      5-min Rain = 0
KWE2 130157Z 13001KT 25/12 A2993 RMK A01 T02490121  RH  045%=      5-min Rain = 0
KWE2 130158Z 13000KT 25/12 A2993 RMK A01 T02490122  RH  045%=      5-min Rain = 0
KWE2 130159Z 13000KT 25/12 A2993 RMK A01 T02490124  RH  046%=      5-min Rain = 0
KWE2 130200Z 13000KT 25/13 A2993 RMK A01 T02480128  RH  047%=      5-min Rain = 0
KWE2 130201Z 13001KT 25/13 A2993 RMK A01 T02470131  RH  048%=      5-min Rain = 0
KWE2 130202Z 13001KT 25/13 A2993 RMK A01 T02460131  RH  049%=      5-min Rain = 0
KWE2 130203Z 13001KT 25/13 A2993 RMK A01 T02450133  RH  049%=      5-min Rain = 0
KWE2 130204Z 13001KT 25/12 A2993 RMK A01 T02450122  RH  046%=      5-min Rain = 0
KWE2 130205Z 13001KT 25/12 A2993 RMK A01 T02450115  RH  044%=      5-min Rain = 0
KWE2 130206Z 13001KT 25/12 A2993 RMK A01 T02450123  RH  046%=      5-min Rain = 0
KWE2 130207Z 13001KT 25/12 A2993 RMK A01 T02450124  RH  047%=      5-min Rain = 0
KWE2 130208Z 13000KT 25/12 A2993 RMK A01 T02460124  RH  046%=      5-min Rain = 0
KWE2 130209Z 13000KT 25/12 A2993 RMK A01 T02460121  RH  046%=      5-min Rain = 0
KWE2 130210Z 13001KT 25/12 A2993 RMK A01 T02460115  RH  044%=      5-min Rain = 0
KWE2 130211Z 00000KT 25/12 A2993 RMK A01 T02460115  RH  044%=      5-min Rain = 0
KWE2 130212Z 00000KT 25/11 A2993 RMK A01 T02460111  RH  043%=      5-min Rain = 0
KWE2 130213Z 00000KT 25/11 A2993 RMK A01 T02450111  RH  043%=      5-min Rain = 0
KWE2 130214Z 00000KT 24/11 A2993 RMK A01 T02430107  RH  042%=      5-min Rain = 0
KWE2 130215Z 00000KT 24/11 A2993 RMK A01 T02420108  RH  043%=      5-min Rain = 0
KWE2 130216Z 00000KT 24/11 A2993 RMK A01 T02410108  RH  043%=      5-min Rain = 0
KWE2 130217Z 00000KT 24/11 A2993 RMK A01 T02380106  RH  043%=      5-min Rain = 0
KWE2 130218Z 00000KT 24/11 A2993 RMK A01 T02360105  RH  044%=      5-min Rain = 0
KWE2 130219Z 24000KT 23/11 A2993 RMK A01 T02330107  RH  045%=      5-min Rain = 0
KWE2 130220Z 26001KT 23/11 A2993 RMK A01 T02320110  RH  046%=      5-min Rain = 0
KWE2 130221Z 27002KT 23/11 A2993 RMK A01 T02300111  RH  047%=      5-min Rain = 0
KWE2 130222Z 27001KT 23/11 A2994 RMK A01 T02290110  RH  047%=      5-min Rain = 0
KWE2 130223Z 00000KT 23/11 A2994 RMK A01 T02280109  RH  047%=      5-min Rain = 0
KWE2 130224Z 00000KT 23/11 A2994 RMK A01 T02290105  RH  045%=      5-min Rain = 0
KWE2 130225Z 00000KT 23/10 A2994 RMK A01 T02300103  RH  044%=      5-min Rain = 0
KWE2 130226Z 00000KT 23/11 A2994 RMK A01 T02290110  RH  047%=      5-min Rain = 0
KWE2 130227Z 00000KT 23/12 A2994 RMK A01 T02290118  RH  050%=      5-min Rain = 0
KWE2 130228Z 00000KT 23/11 A2994 RMK A01 T02280109  RH  047%=      5-min Rain = 0
KWE2 130229Z 00000KT 23/11 A2994 RMK A01 T02300110  RH  047%=      5-min Rain = 0
KWE2 130230Z 27000KT 23/11 A2994 RMK A01 T02310114  RH  048%=      5-min Rain = 0
KWE2 130231Z 10001KT 23/11 A2994 RMK A01 T02310113  RH  047%=      5-min Rain = 0
KWE2 130232Z 12000KT 23/11 A2994 RMK A01 T02310113  RH  048%=      5-min Rain = 0
KWE2 130233Z 12001KT 23/11 A2994 RMK A01 T02310112  RH  047%=      5-min Rain = 0
KWE2 130234Z 12001KT 23/11 A2994 RMK A01 T02310111  RH  047%=      5-min Rain = 0
KWE2 130235Z 12001KT 23/11 A2994 RMK A01 T02310112  RH  047%=      5-min Rain = 0
KWE2 130236Z 12001KT 23/11 A2994 RMK A01 T02320113  RH  047%=      5-min Rain = 0
KWE2 130237Z 11001KT 23/11 A2994 RMK A01 T02320114  RH  047%=      5-min Rain = 0
KWE2 130238Z 11001KT 23/12 A2994 RMK A01 T02320116  RH  048%=      5-min Rain = 0
KWE2 130239Z 09001KT 23/12 A2994 RMK A01 T02310119  RH  049%=      5-min Rain = 0
KWE2 130240Z 07001KT 23/12 A2994 RMK A01 T02310118  RH  049%=      5-min Rain = 0
KWE2 130241Z 08001KT 23/12 A2994 RMK A01 T02300116  RH  049%=      5-min Rain = 0
KWE2 130242Z 11001KT 23/11 A2994 RMK A01 T02290114  RH  048%=      5-min Rain = 0
KWE2 130243Z 11001KT 23/12 A2994 RMK A01 T02280120  RH  050%=      5-min Rain = 0
KWE2 130244Z 11002KT 23/12 A2994 RMK A01 T02270118  RH  050%=      5-min Rain = 0
KWE2 130245Z 11002KT 23/12 A2994 RMK A01 T02270118  RH  050%=      5-min Rain = 0
KWE2 130246Z 11002KT 23/12 A2994 RMK A01 T02280120  RH  051%=      5-min Rain = 0
KWE2 130247Z 13002KT 23/12 A2994 RMK A01 T02290124  RH  052%=      5-min Rain = 0
KWE2 130248Z 12003KT 23/13 A2994 RMK A01 T02280126  RH  052%=      5-min Rain = 0
KWE2 130249Z 12003KT 23/12 A2994 RMK A01 T02280124  RH  052%=      5-min Rain = 0
KWE2 130250Z 12002KT 23/12 A2994 RMK A01 T02270123  RH  052%=      5-min Rain = 0
KWE2 130251Z 13003KT 23/14 A2994 RMK A01 T02270136  RH  056%=      5-min Rain = 0
KWE2 130252Z 13003KT 23/14 A2994 RMK A01 T02250135  RH  057%=      5-min Rain = 0
KWE2 130253Z 12002KT 22/13 A2994 RMK A01 T02240133  RH  056%=      5-min Rain = 0
KWE2 130254Z 12003KT 22/13 A2994 RMK A01 T02230130  RH  055%=      5-min Rain = 0
KWE2 130255Z 13002KT 22/12 A2994 RMK A01 T02230124  RH  053%=      5-min Rain = 0
KWE2 130256Z 13003KT 22/13 A2994 RMK A01 T02230130  RH  055%=      5-min Rain = 0
KWE2 130257Z 13003KT 22/13 A2994 RMK A01 T02230129  RH  055%=      5-min Rain = 0
KWE2 130258Z 13003KT 22/13 A2994 RMK A01 T02230130  RH  056%=      5-min Rain = 0
KWE2 130259Z 13002KT 22/13 A2994 RMK A01 T02230125  RH  054%=      5-min Rain = 0
KWE2 130300Z 12003KT 23/12 A2994 RMK A01 T02250122  RH  052%=      5-min Rain = 0
KWE2 130301Z 12003KT 23/12 A2994 RMK A01 T02270121  RH  051%=      5-min Rain = 0
KWE2 130302Z 12003KT 23/12 A2994 RMK A01 T02290118  RH  050%=      5-min Rain = 0
KWE2 130303Z 12003KT 23/11 A2994 RMK A01 T02310114  RH  048%=      5-min Rain = 0
KWE2 130304Z 11003KT 23/11 A2994 RMK A01 T02340113  RH  046%=      5-min Rain = 0
KWE2 130305Z 09003KT 24/11 A2994 RMK A01 T02360113  RH  046%=      5-min Rain = 0
KWE2 130306Z 11003KT 24/11 A2994 RMK A01 T02380110  RH  044%=      5-min Rain = 0
KWE2 130307Z 11003KT 24/11 A2994 RMK A01 T02390109  RH  044%=      5-min Rain = 0
KWE2 130308Z 11004KT 24/11 A2994 RMK A01 T02390109  RH  044%=      5-min Rain = 0
KWE2 130309Z 12004KT 24/11 A2994 RMK A01 T02390110  RH  044%=      5-min Rain = 0
KWE2 130310Z 12004KT 24/11 A2994 RMK A01 T02400109  RH  044%=      5-min Rain = 0
KWE2 130311Z 12003KT 24/11 A2994 RMK A01 T02420110  RH  043%=      5-min Rain = 0
KWE2 130312Z 12003KT 24/11 A2994 RMK A01 T02430112  RH  044%=      5-min Rain = 0
KWE2 130313Z 11003KT 24/11 A2994 RMK A01 T02430112  RH  044%=      5-min Rain = 0
KWE2 130314Z 10003KT 24/11 A2994 RMK A01 T02420113  RH  044%=      5-min Rain = 0
KWE2 130315Z 09003KT 24/11 A2994 RMK A01 T02400113  RH  045%=      5-min Rain = 0
KWE2 130316Z 09003KT 24/11 A2994 RMK A01 T02360109  RH  045%=      5-min Rain = 0
KWE2 130317Z 09003KT 23/11 A2994 RMK A01 T02340110  RH  046%=      5-min Rain = 0
KWE2 130318Z 09003KT 23/11 A2994 RMK A01 T02320107  RH  045%=      5-min Rain = 0
KWE2 130319Z 09003KT 23/11 A2994 RMK A01 T02290107  RH  046%=      5-min Rain = 0
KWE2 130320Z 08003KT 23/11 A2994 RMK A01 T02280106  RH  046%=      5-min Rain = 0
KWE2 130321Z 08003KT 23/11 A2994 RMK A01 T02270105  RH  046%=      5-min Rain = 0
KWE2 130322Z 08003KT 23/10 A2994 RMK A01 T02270104  RH  046%=      5-min Rain = 0
KWE2 130323Z 08003KT 23/10 A2994 RMK A01 T02280103  RH  045%=      5-min Rain = 0
KWE2 130324Z 08003KT 23/10 A2994 RMK A01 T02300102  RH  044%=      5-min Rain = 0
KWE2 130325Z 08003KT 23/10 A2994 RMK A01 T02320102  RH  044%=      5-min Rain = 0
KWE2 130326Z 07003KT 24/10 A2994 RMK A01 T02350102  RH  043%=      5-min Rain = 0
KWE2 130327Z 06003KT 24/11 A2994 RMK A01 T02350105  RH  044%=      5-min Rain = 0
KWE2 130328Z 05004KT 23/11 A2994 RMK A01 T02330107  RH  045%=      5-min Rain = 0
KWE2 130329Z 05004KT 23/11 A2994 RMK A01 T02310107  RH  045%=      5-min Rain = 0
KWE2 130330Z 04004KT 23/11 A2994 RMK A01 T02300110  RH  047%=      5-min Rain = 0
KWE2 130331Z 05004KT 23/11 A2994 RMK A01 T02300110  RH  047%=      5-min Rain = 0
KWE2 130332Z 05004KT 23/11 A2994 RMK A01 T02310111  RH  047%=      5-min Rain = 0
KWE2 130333Z 06004KT 23/11 A2994 RMK A01 T02310114  RH  048%=      5-min Rain = 0
KWE2 130334Z 06004KT 23/12 A2994 RMK A01 T02320115  RH  048%=      5-min Rain = 0
KWE2 130335Z 06004KT 23/11 A2994 RMK A01 T02330114  RH  047%=      5-min Rain = 0
KWE2 130336Z 06004KT 23/11 A2994 RMK A01 T02330114  RH  047%=      5-min Rain = 0
KWE2 130337Z 06004KT 23/11 A2994 RMK A01 T02340113  RH  047%=      5-min Rain = 0
KWE2 130338Z 06004KT 23/11 A2994 RMK A01 T02340111  RH  046%=      5-min Rain = 0
KWE2 130339Z 06003KT 23/11 A2994 RMK A01 T02330109  RH  046%=      5-min Rain = 0
KWE2 130340Z 06003KT 23/11 A2994 RMK A01 T02330109  RH  046%=      5-min Rain = 0
KWE2 130341Z 06003KT 23/11 A2994 RMK A01 T02310109  RH  046%=      5-min Rain = 0
KWE2 130342Z 07003KT 23/11 A2994 RMK A01 T02300110  RH  047%=      5-min Rain = 0
KWE2 130343Z 07003KT 23/11 A2995 RMK A01 T02290110  RH  047%=      5-min Rain = 0
KWE2 130344Z 07003KT 23/11 A2995 RMK A01 T02280113  RH  048%=      5-min Rain = 0
KWE2 130345Z 07004KT 23/12 A2995 RMK A01 T02280116  RH  049%=      5-min Rain = 0
KWE2 130346Z 08005KT 23/12 A2995 RMK A01 T02260122  RH  052%=      5-min Rain = 0
KWE2 130347Z 08005KT 23/12 A2995 RMK A01 T02250116  RH  050%=      5-min Rain = 0
KWE2 130348Z 07005KT 23/11 A2995 RMK A01 T02280112  RH  048%=      5-min Rain = 0
KWE2 130349Z 08004KT 23/11 A2995 RMK A01 T02310110  RH  046%=      5-min Rain = 0
KWE2 130350Z 08005KT 24/11 A2995 RMK A01 T02350105  RH  044%=      5-min Rain = 0
KWE2 130351Z 09005KT 24/10 A2995 RMK A01 T02390103  RH  042%=      5-min Rain = 0
KWE2 130352Z 09004KT 24/10 A2995 RMK A01 T02430104  RH  042%=      5-min Rain = 0
KWE2 130353Z 09004KT 24/11 A2995 RMK A01 T02410112  RH  044%=      5-min Rain = 0
KWE2 130354Z 09004KT 24/11 A2995 RMK A01 T02380110  RH  045%=      5-min Rain = 0
KWE2 130355Z 08003KT 24/11 A2995 RMK A01 T02360111  RH  045%=      5-min Rain = 0
KWE2 130356Z 08003KT 23/11 A2995 RMK A01 T02340110  RH  046%=      5-min Rain = 0
KWE2 130357Z 08003KT 23/11 A2995 RMK A01 T02340112  RH  046%=      5-min Rain = 0
KWE2 130358Z 08003KT 23/11 A2995 RMK A01 T02330112  RH  047%=      5-min Rain = 0
KWE2 130359Z 08003KT 23/11 A2995 RMK A01 T02310113  RH  047%=      5-min Rain = 0
KWE2 130400Z 09004KT 23/11 A2995 RMK A01 T02290107  RH  046%=      5-min Rain = 0
KWE2 130401Z 09004KT 23/11 A2995 RMK A01 T02300105  RH  045%=      5-min Rain = 0
KWE2 130402Z 09004KT 23/10 A2995 RMK A01 T02320102  RH  044%=      5-min Rain = 0
KWE2 130403Z 10005KT 24/10 A2995 RMK A01 T02350102  RH  043%=      5-min Rain = 0
KWE2 130404Z 10006KT 24/10 A2995 RMK A01 T02370104  RH  043%=      5-min Rain = 0
KWE2 130405Z 09006KT 24/11 A2995 RMK A01 T02380105  RH  043%=      5-min Rain = 0
KWE2 130406Z 10006KT 24/11 A2995 RMK A01 T02390106  RH  043%=      5-min Rain = 0
KWE2 130407Z 10006KT 24/11 A2995 RMK A01 T02390106  RH  043%=      5-min Rain = 0
KWE2 130408Z 10006KT 24/11 A2995 RMK A01 T02390107  RH  043%=      5-min Rain = 0
KWE2 130409Z 10006KT 24/11 A2995 RMK A01 T02380108  RH  044%=      5-min Rain = 0
KWE2 130410Z 11006KT 24/11 A2995 RMK A01 T02350111  RH  046%=      5-min Rain = 0
KWE2 130411Z 11006KT 23/11 A2995 RMK A01 T02330111  RH  046%=      5-min Rain = 0
KWE2 130412Z 11006KT 23/11 A2995 RMK A01 T02310114  RH  048%=      5-min Rain = 0
KWE2 130413Z 11006KT 23/12 A2995 RMK A01 T02270115  RH  049%=      5-min Rain = 0
KWE2 130414Z 12006KT 22/11 A2995 RMK A01 T02240113  RH  049%=      5-min Rain = 0
KWE2 130415Z 12006KT 22/11 A2995 RMK A01 T02240114  RH  050%=      5-min Rain = 0
KWE2 130416Z 12006KT 22/12 A2995 RMK A01 T02220117  RH  051%=      5-min Rain = 0
KWE2 130417Z 12006KT 22/12 A2995 RMK A01 T02200118  RH  052%=      5-min Rain = 0
KWE2 130418Z 13006KT 22/12 A2995 RMK A01 T02190118  RH  053%=      5-min Rain = 0
KWE2 130419Z 13006KT 22/12 A2995 RMK A01 T02170119  RH  054%=      5-min Rain = 0
KWE2 130420Z 13006KT 22/12 A2995 RMK A01 T02150120  RH  054%=      5-min Rain = 0
KWE2 130421Z 13006KT 21/12 A2995 RMK A01 T02140120  RH  055%=      5-min Rain = 0
KWE2 130422Z 13005KT 21/12 A2995 RMK A01 T02120120  RH  056%=      5-min Rain = 0
KWE2 130423Z 13005KT 21/12 A2995 RMK A01 T02110120  RH  056%=      5-min Rain = 0
KWE2 130424Z 12005KT 21/12 A2995 RMK A01 T02100122  RH  057%=      5-min Rain = 0
KWE2 130425Z 12006KT 21/12 A2995 RMK A01 T02080122  RH  058%=      5-min Rain = 0
KWE2 130426Z 11006KT 21/12 A2995 RMK A01 T02060119  RH  058%=      5-min Rain = 0
KWE2 130427Z 11006KT 21/11 A2995 RMK A01 T02060114  RH  056%=      5-min Rain = 0
KWE2 130428Z 10006KT 21/11 A2995 RMK A01 T02080112  RH  054%=      5-min Rain = 0
KWE2 130429Z 11006KT 21/11 A2995 RMK A01 T02090112  RH  054%=      5-min Rain = 0
KWE2 130430Z 12006KT 21/11 A2995 RMK A01 T02100112  RH  054%=      5-min Rain = 0
KWE2 130431Z 13006KT 21/12 A2995 RMK A01 T02110115  RH  054%=      5-min Rain = 0
KWE2 130432Z 14006KT 21/12 A2995 RMK A01 T02100116  RH  055%=      5-min Rain = 0
KWE2 130433Z 14006KT 21/12 A2995 RMK A01 T02100116  RH  055%=      5-min Rain = 0
KWE2 130434Z 14006KT 21/12 A2995 RMK A01 T02090116  RH  055%=      5-min Rain = 0
KWE2 130435Z 14006KT 21/12 A2995 RMK A01 T02100118  RH  055%=      5-min Rain = 0
KWE2 130436Z 14005KT 21/12 A2995 RMK A01 T02090116  RH  055%=      5-min Rain = 0
KWE2 130437Z 13005KT 21/12 A2995 RMK A01 T02090117  RH  056%=      5-min Rain = 0
KWE2 130438Z 13005KT 21/12 A2995 RMK A01 T02080118  RH  056%=      5-min Rain = 0
KWE2 130439Z 13005KT 21/12 A2995 RMK A01 T02070118  RH  057%=      5-min Rain = 0
KWE2 130440Z 13004KT 21/12 A2996 RMK A01 T02060118  RH  057%=      5-min Rain = 0
KWE2 130441Z 12004KT 21/12 A2996 RMK A01 T02050116  RH  057%=      5-min Rain = 0
KWE2 130442Z 11004KT 21/11 A2996 RMK A01 T02060113  RH  055%=      5-min Rain = 0
KWE2 130443Z 11005KT 21/11 A2996 RMK A01 T02090111  RH  054%=      5-min Rain = 0
KWE2 130444Z 11004KT 21/11 A2996 RMK A01 T02120112  RH  053%=      5-min Rain = 0
KWE2 130445Z 10005KT 22/11 A2996 RMK A01 T02150112  RH  052%=      5-min Rain = 0
KWE2 130446Z 09005KT 22/11 A2996 RMK A01 T02170111  RH  051%=      5-min Rain = 0
KWE2 130447Z 08005KT 22/11 A2996 RMK A01 T02190111  RH  050%=      5-min Rain = 0
KWE2 130448Z 07005KT 22/11 A2996 RMK A01 T02210111  RH  050%=      5-min Rain = 0
KWE2 130449Z 06004KT 22/11 A2996 RMK A01 T02220110  RH  049%=      5-min Rain = 0
KWE2 130450Z 06005KT 22/11 A2996 RMK A01 T02210111  RH  049%=      5-min Rain = 0
KWE2 130451Z 07003KT 22/11 A2996 RMK A01 T02190112  RH  050%=      5-min Rain = 0
KWE2 130452Z 08003KT 22/11 A2996 RMK A01 T02180112  RH  051%=      5-min Rain = 0
KWE2 130453Z 09003KT 22/11 A2996 RMK A01 T02180112  RH  051%=      5-min Rain = 0
KWE2 130454Z 10003KT 22/11 A2996 RMK A01 T02180113  RH  051%=      5-min Rain = 0
KWE2 130455Z 11003KT 22/11 A2996 RMK A01 T02180112  RH  051%=      5-min Rain = 0
KWE2 130456Z 11003KT 22/11 A2996 RMK A01 T02180113  RH  051%=      5-min Rain = 0
KWE2 130457Z 11003KT 22/12 A2996 RMK A01 T02170115  RH  052%=      5-min Rain = 0
KWE2 130458Z 11004KT 21/12 A2996 RMK A01 T02140118  RH  054%=      5-min Rain = 0
KWE2 130459Z 11004KT 21/12 A2996 RMK A01 T02110117  RH  055%=      5-min Rain = 0

Page generated in 0.162 seconds.